M I D A S
Marine Information and Data Acquisition System
Tripno 651 of the Zeeleeuw from 2004-02-18 07:12:45 to 2004-02-18 11:52:08
Back to CruiseResearch ActivitiesStationsMapUnderway DataData graphs

EquipmentUnitsComment
TimeDGPSUTC
LatitudeDGPSDM.mWGS84
LongitudeDGPSDM.mWGS84
TemperatureSBE03/SBE38deg celciusITS90
ConductivitySBE21S/mITS90
SalinitySBE21 Practical Salinity Units
ChlorophylAChelsea fluorimeterg/lCalibrated in Aceton
Missing or incorrect values are displayed as -999
Sea surface data collected by the RV Zeeleeuw from 2004-02-18 07:12:45 to 2004-02-18 11:52:08
                                                                                    Next 1000 lines
Time Latitude Longitude Temperature Conductivity Salinity ChlorophylA
2004-02-18 07:12:54 51°13.592 2°56.107 7.448068 1.898212 17.344161 4.140324
2004-02-18 07:12:59 51°13.592 2°56.107 7.438212 1.881728 17.183833 4.106614
2004-02-18 07:13:04 51°13.592 2°56.107 7.489283 1.903566 17.402535 3.938067
2004-02-18 07:13:09 51°13.592 2°56.107 7.489283 1.903566 17.402535 3.938067
2004-02-18 07:13:14 51°13.592 2°56.107 7.439285 1.895377 17.326396 4.275161
2004-02-18 07:13:19 51°13.592 2°56.107 7.462363 1.887713 17.254228 4.005486
2004-02-18 07:13:24 51°13.591 2°56.107 7.462167 1.907136 17.44907 4.106614
2004-02-18 07:13:28 51°13.591 2°56.107 7.434308 1.906611 17.436668 4.005486
2004-02-18 07:13:34 51°13.591 2°56.106 7.41825 1.915641 17.5267 4.207742
2004-02-18 07:13:38 51°13.591 2°56.106 7.41825 1.915641 17.5267 4.207742
2004-02-18 07:13:44 51°13.592 2°56.106 7.410733 1.916376 17.541237 4.106614
2004-02-18 07:13:48 51°13.592 2°56.105 7.410342 1.944097 17.818052 4.106614
2004-02-18 07:13:54 51°13.592 2°56.102 7.386269 1.945987 17.844276 4.106614
2004-02-18 07:13:59 51°13.593 2°56.098 7.421765 1.927296 17.660904 4.072905
2004-02-18 07:14:04 51°13.594 2°56.094 7.357155 1.926141 17.651073 4.072905
2004-02-18 07:14:10 51°13.596 2°56.088 7.357155 1.926141 17.651073 4.072905
2004-02-18 07:14:14 51°13.597 2°56.083 7.300892 1.924776 17.641278 4.207742
2004-02-18 07:14:20 51°13.599 2°56.075 7.234447 1.937797 17.777879 4.005486
2004-02-18 07:14:25 51°13.601 2°56.068 7.220494 1.950082 17.901251 4.140324
2004-02-18 07:14:30 51°13.603 2°56.061 7.196497 1.956488 17.971477 4.174033
2004-02-18 07:14:34 51°13.605 2°56.055 7.228719 1.986312 18.291765 4.174033
2004-02-18 07:14:40 51°13.607 2°56.045 7.228719 1.986312 18.291765 4.174033
2004-02-18 07:14:45 51°13.609 2°56.037 7.193264 2.04849 18.950155 4.848221
2004-02-18 07:14:50 51°13.612 2°56.028 7.185425 2.086096 19.352914 5.421281
2004-02-18 07:14:54 51°13.614 2°56.021 7.159945 2.088512 19.392495 5.623537
2004-02-18 07:15:00 51°13.618 2°56.011 7.169207 2.077902 19.291034 5.657247
2004-02-18 07:15:05 51°13.621 2°56.002 7.203109 2.045024 18.962154 5.724665
2004-02-18 07:15:10 51°13.625 2°55.994 7.203109 2.045024 18.962154 5.724665
2004-02-18 07:15:14 51°13.628 2°55.987 7.136317 1.997131 18.483869 5.657247
2004-02-18 07:15:20 51°13.632 2°55.977 7.148524 1.971086 18.227727 5.657247
2004-02-18 07:15:25 51°13.636 2°55.97 7.120086 1.96153 18.136668 5.556118
2004-02-18 07:15:30 51°13.64 2°55.964 7.096787 1.958065 18.09996 5.522409
2004-02-18 07:15:34 51°13.642 2°55.959 7.093745 1.979593 18.326956 5.353862
2004-02-18 07:15:39 51°13.644 2°55.955 7.093745 1.979593 18.326956 5.353862
2004-02-18 07:15:44 51°13.646 2°55.952 7.080399 2.017821 18.718474 5.45499
2004-02-18 07:15:49 51°13.648 2°55.949 7.102821 2.080424 19.360461 5.320153
2004-02-18 07:15:54 51°13.65 2°55.944 7.105715 2.143143 20.009742 5.185315
2004-02-18 07:15:59 51°13.652 2°55.94 7.096542 2.181809 20.41568 5.4887
2004-02-18 07:16:04 51°13.654 2°55.934 7.072547 2.211336 20.72714 5.421281
2004-02-18 07:16:10 51°13.657 2°55.927 7.072547 2.211336 20.72714 5.421281
2004-02-18 07:16:14 51°13.658 2°55.922 7.067393 2.222055 20.836039 5.387571
2004-02-18 07:16:20 51°13.661 2°55.914 7.084962 2.208919 20.697807 5.387571
2004-02-18 07:16:25 51°13.663 2°55.907 7.063025 2.222686 20.841997 5.320153
2004-02-18 07:16:30 51°13.666 2°55.899 7.050114 2.22857 20.907485 5.45499
2004-02-18 07:16:34 51°13.667 2°55.893 7.057232 2.23929 21.021129 5.320153
2004-02-18 07:16:40 51°13.67 2°55.883 7.057232 2.23929 21.021129 5.320153
2004-02-18 07:16:45 51°13.671 2°55.874 7.092568 2.237293 21.002678 5.252734
2004-02-18 07:16:50 51°13.673 2°55.865 7.042749 2.250325 21.141742 5.320153
2004-02-18 07:16:54 51°13.674 2°55.858 7.068964 2.279647 21.449727 5.353862
2004-02-18 07:17:00 51°13.676 2°55.847 7.040392 2.2828 21.483783 5.45499
2004-02-18 07:17:05 51°13.678 2°55.837 7.048788 2.301404 21.669695 5.45499
2004-02-18 07:17:10 51°13.679 2°55.827 7.048788 2.301404 21.669695 5.45499
2004-02-18 07:17:15 51°13.68 2°55.817 7.04054 2.30214 21.679934 5.4887
2004-02-18 07:17:20 51°13.682 2°55.807 7.027182 2.314017 21.808316 5.117896
2004-02-18 07:17:25 51°13.683 2°55.797 7.015934 2.32621 21.939567 5.353862
2004-02-18 07:17:30 51°13.684 2°55.787 7.04432 2.338299 22.067176 5.387571
2004-02-18 07:17:34 51°13.686 2°55.779 7.026249 2.326526 21.947126 5.690956
2004-02-18 07:17:40 51°13.687 2°55.767 7.026249 2.326526 21.947126 5.690956
2004-02-18 07:17:45 51°13.688 2°55.76 7.029834 2.354067 22.235145 5.522409
2004-02-18 07:17:50 51°13.688 2°55.755 7.02895 2.378561 22.493737 5.4887
2004-02-18 07:17:54 51°13.689 2°55.753 7.023548 2.394646 22.660504 5.623537
2004-02-18 07:17:58 51°13.689 2°55.753 7.019323 2.390335 22.618019 5.522409
2004-02-18 07:18:04 51°13.688 2°55.755 7.013969 2.413465 22.85972 5.556118
2004-02-18 07:18:09 51°13.689 2°55.759 7.013969 2.413465 22.85972 5.556118
2004-02-18 07:18:14 51°13.69 2°55.763 7.035531 2.409575 22.821567 5.657247
2004-02-18 07:18:19 51°13.691 2°55.769 7.020453 2.420299 22.935197 5.690956
2004-02-18 07:18:24 51°13.693 2°55.774 7.041276 2.398851 22.712481 5.623537
2004-02-18 07:18:28 51°13.694 2°55.778 7.04707 2.363633 22.352243 5.657247
2004-02-18 07:18:34 51°13.695 2°55.782 7.056496 2.335145 22.056201 5.556118
2004-02-18 07:18:40 51°13.696 2°55.783 7.056496 2.335145 22.056201 5.556118
2004-02-18 07:18:44 51°13.696 2°55.783 7.039803 2.28238 21.509482 5.589828
2004-02-18 07:18:49 51°13.695 2°55.782 7.047266 2.224998 20.913293 5.589828
2004-02-18 07:18:54 51°13.694 2°55.78 7.052863 2.151023 20.151234 5.522409
2004-02-18 07:18:59 51°13.692 2°55.777 7.053501 2.094291 19.567398 5.45499
2004-02-18 07:19:04 51°13.691 2°55.774 7.037986 2.05679 19.182729 5.522409
2004-02-18 07:19:10 51°13.689 2°55.77 7.037986 2.05679 19.182729 5.522409
2004-02-18 07:19:14 51°13.688 2°55.77 7.031258 2.042715 19.041327 5.623537
2004-02-18 07:19:20 51°13.689 2°55.77 7.027231 2.054374 19.158129 5.724665
2004-02-18 07:19:25 51°13.69 2°55.772 7.030669 2.050382 19.117026 5.825794
2004-02-18 07:19:30 51°13.693 2°55.773 7.011022 2.041769 19.031707 5.724665
2004-02-18 07:19:34 51°13.696 2°55.774 7.025414 2.063512 19.256861 5.657247
2004-02-18 07:19:40 51°13.701 2°55.774 7.025414 2.063512 19.256861 5.657247
2004-02-18 07:19:45 51°13.707 2°55.773 7.03337 2.082421 19.454878 5.792084
2004-02-18 07:19:49 51°13.712 2°55.77 7.034254 2.155331 20.201292 5.690956
2004-02-18 07:19:54 51°13.718 2°55.765 7.032633 2.178027 20.43896 5.556118
2004-02-18 07:19:58 51°13.722 2°55.76 7.035531 2.199252 20.655342 5.623537
2004-02-18 07:20:04 51°13.728 2°55.752 7.038428 2.185487 20.513004 5.657247
2004-02-18 07:20:08 51°13.733 2°55.747 7.038428 2.185487 20.513004 5.657247
2004-02-18 07:20:14 51°13.739 2°55.738 7.028066 2.165733 20.308884 5.690956
2004-02-18 07:20:18 51°13.744 2°55.732 7.030964 2.139571 20.04187 5.623537
2004-02-18 07:20:24 51°13.751 2°55.722 7.033517 2.119504 19.835587 5.690956
2004-02-18 07:20:28 51°13.756 2°55.715 7.05247 2.109944 19.736889 5.589828
2004-02-18 07:20:34 51°13.764 2°55.705 7.03612 2.128329 19.922915 5.623537
2004-02-18 07:20:38 51°13.77 2°55.697 7.03612 2.128329 19.922915 5.623537
2004-02-18 07:20:44 51°13.778 2°55.687 7.050065 2.132742 19.970014 5.623537
2004-02-18 07:20:49 51°13.785 2°55.678 7.04923 2.131061 19.953793 5.589828
2004-02-18 07:20:54 51°13.793 2°55.669 7.038133 2.094922 19.580551 5.522409
2004-02-18 07:20:58 51°13.799 2°55.662 7.05301 2.059731 19.220217 5.690956
2004-02-18 07:21:04 51°13.809 2°55.651 7.039852 2.031056 18.926439 5.522409
2004-02-18 07:21:09 51°13.817 2°55.643 7.039852 2.031056 18.926439 5.522409
2004-02-18 07:21:14 51°13.825 2°55.635 7.041423 2.022128 18.833348 5.421281
2004-02-18 07:21:18 51°13.832 2°55.628 7.034843 2.016667 18.778302 5.522409
2004-02-18 07:21:24 51°13.843 2°55.619 7.035825 2.017822 18.790503 5.589828
2004-02-18 07:21:29 51°13.851 2°55.612 7.039754 2.040299 19.020009 5.589828
2004-02-18 07:21:34 51°13.861 2°55.605 7.03062 2.064458 19.26555 5.589828
2004-02-18 07:21:39 51°13.87 2°55.597 7.03062 2.064458 19.26555 5.589828
2004-02-18 07:21:44 51°13.879 2°55.59 7.018832 2.100279 19.634294 5.353862
2004-02-18 07:21:49 51°13.888 2°55.583 7.024726 2.116143 19.796359 5.421281
2004-02-18 07:21:54 51°13.898 2°55.576 7.015738 2.133267 19.97294 5.45499
2004-02-18 07:21:59 51°13.908 2°55.569 7.013969 2.13747 20.018887 5.4887
2004-02-18 07:22:04 51°13.918 2°55.562 7.010629 2.151234 20.164262 5.286443
2004-02-18 07:22:09 51°13.928 2°55.555 7.010629 2.151234 20.164262 5.286443
2004-02-18 07:22:14 51°13.939 2°55.548 7.007239 2.154911 20.201446 5.556118
2004-02-18 07:22:18 51°13.947 2°55.542 6.989403 2.164893 20.305746 5.387571
2004-02-18 07:22:24 51°13.96 2°55.533 6.985226 2.18286 20.493083 5.589828
2004-02-18 07:22:29 51°13.971 2°55.525 6.989894 2.222791 20.906497 5.4887
2004-02-18 07:22:34 51°13.982 2°55.517 6.992056 2.261255 21.305785 5.353862
2004-02-18 07:22:39 51°13.993 2°55.509 6.992056 2.261255 21.305785 5.353862
2004-02-18 07:22:44 51°14.004 2°55.501 6.971856 2.302876 21.740767 5.387571
2004-02-18 07:22:48 51°14.013 2°55.494 6.995201 2.319063 21.911927 5.589828
2004-02-18 07:22:54 51°14.026 2°55.484 6.974167 2.328629 22.015254 5.556118
2004-02-18 07:22:58 51°14.035 2°55.478 6.97687 2.402216 22.778132 5.421281
2004-02-18 07:23:04 51°14.049 2°55.469 6.980901 2.416409 22.930785 5.252734
2004-02-18 07:23:09 51°14.06 2°55.461 6.980901 2.416409 22.930785 5.252734
2004-02-18 07:23:14 51°14.071 2°55.452 6.972151 2.420089 22.965688 5.522409
2004-02-18 07:23:20 51°14.085 2°55.443 6.967481 2.443325 23.209308 5.286443
2004-02-18 07:23:24 51°14.095 2°55.436 6.958435 2.452894 23.310731 5.387571
2004-02-18 07:23:29 51°14.107 2°55.428 6.963352 2.456469 23.345704 5.353862
2004-02-18 07:23:34 51°14.119 2°55.42 6.947913 2.458466 23.3717 5.252734
2004-02-18 07:23:39 51°14.131 2°55.411 6.947913 2.458466 23.3717 5.252734
2004-02-18 07:23:44 51°14.143 2°55.403 6.943831 2.462252 23.415206 5.421281
2004-02-18 07:23:49 51°14.155 2°55.393 6.94393 2.470138 23.50269 5.4887
2004-02-18 07:23:54 51°14.167 2°55.384 6.928634 2.465511 23.454978 5.522409
2004-02-18 07:23:58 51°14.176 2°55.375 6.932323 2.477919 23.588569 5.623537
2004-02-18 07:24:04 51°14.191 2°55.361 6.922239 2.486752 23.686089 5.623537
2004-02-18 07:24:09 51°14.202 2°55.349 6.922239 2.486752 23.686089 5.623537
2004-02-18 07:24:14 51°14.214 2°55.336 6.91417 2.494849 23.774242 5.690956
2004-02-18 07:24:19 51°14.225 2°55.322 6.901328 2.50831 23.91917 5.657247
2004-02-18 07:24:24 51°14.236 2°55.307 6.894143 2.497899 23.815511 5.758375
2004-02-18 07:24:29 51°14.247 2°55.291 6.894979 2.508205 23.926313 5.792084
2004-02-18 07:24:34 51°14.257 2°55.275 6.885923 2.516618 24.020328 5.893212
2004-02-18 07:24:38 51°14.265 2°55.261 6.885923 2.516618 24.020328 5.893212
2004-02-18 07:24:44 51°14.277 2°55.239 6.883708 2.553426 24.413544 5.758375
2004-02-18 07:24:48 51°14.286 2°55.224 6.885923 2.562786 24.517888 5.724665
2004-02-18 07:24:54 51°14.298 2°55.2 6.882871 2.550061 24.386021 5.825794
2004-02-18 07:24:58 51°14.306 2°55.185 6.881887 2.549535 24.382902 5.690956
2004-02-18 07:25:04 51°14.317 2°55.16 6.880656 2.540911 24.296545 5.724665
2004-02-18 07:25:09 51°14.327 2°55.139 6.880656 2.540911 24.296545 5.724665
2004-02-18 07:25:14 51°14.337 2°55.119 6.869038 2.542594 24.316011 5.758375
2004-02-18 07:25:19 51°14.346 2°55.097 6.859436 2.510834 23.982181 5.724665
2004-02-18 07:25:24 51°14.355 2°55.075 6.846188 2.515461 24.034251 5.657247
2004-02-18 07:25:29 51°14.364 2°55.053 6.831953 2.505155 23.925605 5.690956
2004-02-18 07:25:34 51°14.372 2°55.029 6.818305 2.506628 23.944579 5.792084
2004-02-18 07:25:40 51°14.379 2°55 6.818305 2.506628 23.944579 5.792084
2004-02-18 07:25:44 51°14.384 2°54.979 6.804605 2.49485 23.826421 5.690956
2004-02-18 07:25:49 51°14.388 2°54.953 6.806922 2.529764 24.202207 6.061759
2004-02-18 07:25:54 51°14.392 2°54.927 6.799184 2.562471 24.552085 6.129178
2004-02-18 07:25:58 51°14.394 2°54.906 6.772759 2.568046 24.620476 6.365144
2004-02-18 07:26:04 51°14.397 2°54.873 6.752046 2.590974 24.871888 6.499982
2004-02-18 07:26:09 51°14.4 2°54.845 6.752046 2.590974 24.871888 6.499982
2004-02-18 07:26:14 51°14.4 2°54.818 6.7407 2.582876 24.79139 6.735947
2004-02-18 07:26:18 51°14.4 2°54.795 6.727033 2.623055 25.220477 6.702238
2004-02-18 07:26:24 51°14.399 2°54.762 6.715337 2.679965 25.832957 6.533691
2004-02-18 07:26:29 51°14.397 2°54.736 6.733299 2.730569 26.386444 6.466272
2004-02-18 07:26:34 51°14.396 2°54.71 6.731276 2.795068 27.084206 6.499982
2004-02-18 07:26:39 51°14.394 2°54.686 6.731276 2.795068 27.084206 6.499982
2004-02-18 07:26:44 51°14.391 2°54.663 6.718495 2.844316 27.622086 6.365144
2004-02-18 07:26:48 51°14.389 2°54.645 6.713461 2.891884 28.142265 5.859503
2004-02-18 07:26:54 51°14.387 2°54.619 6.716965 2.922406 28.471472 5.893212
2004-02-18 07:26:58 51°14.384 2°54.602 6.703244 2.95493 28.819883 5.657247
2004-02-18 07:27:04 51°14.381 2°54.577 6.692926 2.98893 29.191229 5.690956
2004-02-18 07:27:08 51°14.379 2°54.561 6.692926 2.98893 29.191229 5.690956
2004-02-18 07:27:14 51°14.375 2°54.537 6.691889 3.017562 29.502402 5.522409
2004-02-18 07:27:18 51°14.373 2°54.522 6.697122 3.030511 29.643749 5.421281
2004-02-18 07:27:24 51°14.368 2°54.501 6.691445 3.026932 29.609481 5.589828
2004-02-18 07:27:29 51°14.364 2°54.484 6.679693 3.077359 30.159557 5.151606
2004-02-18 07:27:34 51°14.358 2°54.468 6.680236 3.063147 30.012334 5.286443
2004-02-18 07:27:40 51°14.35 2°54.45 6.680236 3.063147 30.012334 5.286443
2004-02-18 07:27:44 51°14.345 2°54.438 6.682359 3.103259 30.449391 5.151606
2004-02-18 07:27:49 51°14.34 2°54.422 6.688976 3.108524 30.511064 5.151606
2004-02-18 07:27:54 51°14.334 2°54.407 6.684779 3.125159 30.697045 5.117896
2004-02-18 07:27:58 51°14.329 2°54.395 6.69337 3.126002 30.710774 5.185315
2004-02-18 07:28:04 51°14.323 2°54.377 6.684335 3.13632 30.822935 4.88193
2004-02-18 07:28:08 51°14.319 2°54.365 6.684335 3.13632 30.822935 4.88193
2004-02-18 07:28:14 51°14.312 2°54.347 6.688778 3.133793 30.792401 4.88193
2004-02-18 07:28:20 51°14.306 2°54.328 6.687544 3.133477 30.789733 5.151606
2004-02-18 07:28:24 51°14.302 2°54.316 6.68789 3.125475 30.702765 5.117896
2004-02-18 07:28:29 51°14.297 2°54.3 6.687198 3.13969 30.855738 4.949349
2004-02-18 07:28:34 51°14.293 2°54.284 6.687445 3.13611 30.816817 5.219024
2004-02-18 07:28:38 51°14.29 2°54.272 6.687445 3.13611 30.816817 5.219024
2004-02-18 07:28:44 51°14.285 2°54.252 6.689717 3.142006 30.879391 5.219024
2004-02-18 07:28:48 51°14.282 2°54.239 6.691198 3.151693 30.986286 5.320153
2004-02-18 07:28:54 51°14.277 2°54.22 6.691099 3.148534 30.952693 5.45499
2004-02-18 07:28:58 51°14.273 2°54.208 6.68947 3.153273 31.006551 5.421281
2004-02-18 07:29:04 51°14.269 2°54.191 6.68784 3.159591 31.072987 5.4887
2004-02-18 07:29:09 51°14.265 2°54.176 6.68784 3.159591 31.072987 5.4887
2004-02-18 07:29:14 51°14.261 2°54.162 6.689519 3.156642 31.040902 5.219024
2004-02-18 07:29:19 51°14.258 2°54.149 6.685223 3.144954 30.913754 5.421281
2004-02-18 07:29:24 51°14.254 2°54.136 6.686359 3.160959 31.090202 5.151606
2004-02-18 07:29:28 51°14.252 2°54.126 6.687248 3.155695 31.032132 5.151606
2004-02-18 07:29:34 51°14.248 2°54.111 6.685026 3.13969 30.859571 5.45499
2004-02-18 07:29:38 51°14.246 2°54.101 6.685026 3.13969 30.859571 5.45499
2004-02-18 07:29:44 51°14.242 2°54.087 6.68705 3.166014 31.145997 5.387571
2004-02-18 07:29:48 51°14.241 2°54.078 6.682211 3.165908 31.145625 5.421281
2004-02-18 07:29:54 51°14.238 2°54.065 6.683495 3.130319 30.757692 5.252734
2004-02-18 07:29:58 51°14.236 2°54.056 6.684038 3.166646 31.152876 5.185315
2004-02-18 07:30:04 51°14.234 2°54.044 6.684236 3.16812 31.169702 4.949349
2004-02-18 07:30:09 51°14.232 2°54.034 6.684236 3.16812 31.169702 4.949349
2004-02-18 07:30:14 51°14.23 2°54.024 6.685964 3.170226 31.192635 5.387571
2004-02-18 07:30:18 51°14.228 2°54.017 6.685026 3.170752 31.199919 5.117896
2004-02-18 07:30:24 51°14.227 2°54.006 6.688581 3.171911 31.21331 5.353862
2004-02-18 07:30:29 51°14.225 2°53.997 6.686458 3.169067 31.181571 4.848221
2004-02-18 07:30:34 51°14.224 2°53.988 6.688581 3.148956 30.96189 4.814512
2004-02-18 07:30:38 51°14.223 2°53.981 6.688581 3.148956 30.96189 4.814512
2004-02-18 07:30:44 51°14.221 2°53.971 6.685569 3.166856 31.155169 4.983059
2004-02-18 07:30:49 51°14.22 2°53.963 6.690704 3.168014 31.167781 4.780802
2004-02-18 07:30:54 51°14.219 2°53.955 6.687347 3.169067 31.180021 5.084187
2004-02-18 07:30:58 51°14.218 2°53.949 6.68863 3.176017 31.254159 4.848221
2004-02-18 07:31:04 51°14.216 2°53.94 6.686606 3.178755 31.287092 5.387571
2004-02-18 07:31:09 51°14.215 2°53.933 6.686606 3.178755 31.287092 5.387571
2004-02-18 07:31:14 51°14.214 2°53.926 6.691297 3.16833 31.170446 5.252734
2004-02-18 07:31:19 51°14.212 2°53.919 6.687396 3.175175 31.243431 5.421281
2004-02-18 07:31:24 51°14.211 2°53.912 6.687347 3.176017 31.254936 5.084187
2004-02-18 07:31:28 51°14.21 2°53.907 6.689124 3.180861 31.306926 5.353862
2004-02-18 07:31:34 51°14.209 2°53.9 6.690556 3.180334 31.298079 5.252734
2004-02-18 07:31:38 51°14.208 2°53.895 6.690556 3.180334 31.298079 5.252734
2004-02-18 07:31:44 51°14.206 2°53.887 6.688877 3.178755 31.281651 5.353862
2004-02-18 07:31:48 51°14.205 2°53.883 6.692136 3.180545 31.304262 5.421281
2004-02-18 07:31:54 51°14.203 2°53.875 6.692136 3.180124 31.298118 5.353862
2004-02-18 07:31:58 51°14.202 2°53.87 6.691445 3.161275 31.092096 5.016768
2004-02-18 07:32:04 51°14.2 2°53.861 6.693222 3.137268 30.831706 5.320153
2004-02-18 07:32:09 51°14.199 2°53.853 6.693222 3.137268 30.831706 5.320153
2004-02-18 07:32:14 51°14.196 2°53.844 6.694703 3.174016 31.233144 5.353862
2004-02-18 07:32:19 51°14.194 2°53.835 6.690951 3.167383 31.159353 5.589828
2004-02-18 07:32:24 51°14.191 2°53.823 6.690358 3.183915 31.338641 5.320153
2004-02-18 07:32:28 51°14.188 2°53.813 6.695246 3.179703 31.289642 5.353862
2004-02-18 07:32:34 51°14.182 2°53.796 6.692086 3.182019 31.316434 5.185315
2004-02-18 07:32:39 51°14.177 2°53.781 6.692086 3.182019 31.316434 5.185315
2004-02-18 07:32:44 51°14.172 2°53.763 6.691691 3.183178 31.33061 5.252734
2004-02-18 07:32:49 51°14.167 2°53.744 6.696283 3.184125 31.340936 5.353862
2004-02-18 07:32:54 51°14.161 2°53.724 6.700578 3.184757 31.347041 5.320153
2004-02-18 07:32:58 51°14.156 2°53.706 6.701763 3.178228 31.275916 5.252734
2004-02-18 07:33:04 51°14.148 2°53.679 6.704428 3.180334 31.298079 5.252734
2004-02-18 07:33:08 51°14.144 2°53.659 6.704428 3.180334 31.298079 5.252734
2004-02-18 07:33:14 51°14.135 2°53.629 6.702404 3.186863 31.367652 5.421281
2004-02-18 07:33:18 51°14.13 2°53.608 6.707242 3.182862 31.324055 5.320153
2004-02-18 07:33:24 51°14.121 2°53.576 6.706995 3.178228 31.271254 4.983059
2004-02-18 07:33:29 51°14.115 2°53.548 6.699048 3.182019 31.310988 5.421281
2004-02-18 07:33:34 51°14.107 2°53.52 6.705218 3.172121 31.204747 5.252734
2004-02-18 07:33:38 51°14.102 2°53.497 6.705218 3.172121 31.204747 5.252734
2004-02-18 07:33:44 51°14.092 2°53.463 6.703984 3.186442 31.356051 5.151606
2004-02-18 07:33:48 51°14.086 2°53.441 6.697962 3.167067 31.144307 5.320153
2004-02-18 07:33:54 51°14.075 2°53.406 6.701812 3.174648 31.226059 5.117896
2004-02-18 07:33:58 51°14.067 2°53.384 6.703145 3.173911 31.217259 5.252734
2004-02-18 07:34:04 51°14.057 2°53.35 6.706551 3.185705 31.348021 4.578546
2004-02-18 07:34:09 51°14.046 2°53.322 6.706551 3.185705 31.348021 4.578546
2004-02-18 07:34:14 51°14.037 2°53.295 6.702158 3.184441 31.33737 4.241452
2004-02-18 07:34:19 51°14.027 2°53.267 6.70507 3.18244 31.314798 4.34258
2004-02-18 07:34:24 51°14.016 2°53.239 6.701565 3.185389 31.347695 4.308871
2004-02-18 07:34:28 51°14.009 2°53.217 6.700973 3.174332 31.226498 4.544836
2004-02-18 07:34:34 51°13.996 2°53.182 6.700726 3.162539 31.097351 4.612255
2004-02-18 07:34:38 51°13.989 2°53.159 6.700726 3.162539 31.097351 4.612255
2004-02-18 07:34:44 51°13.977 2°53.125 6.707982 3.169067 31.16763 5.185315
2004-02-18 07:34:48 51°13.97 2°53.101 6.704922 3.180756 31.294115 4.34258
2004-02-18 07:34:54 51°13.958 2°53.068 6.709562 3.192128 31.417224 4.34258
2004-02-18 07:34:58 51°13.95 2°53.045 6.703589 3.189601 31.390467 4.409999
2004-02-18 07:35:04 51°13.939 2°53.01 6.705416 3.181809 31.301696 4.477418
2004-02-18 07:35:09 51°13.928 2°52.982 6.705416 3.181809 31.301696 4.477418
2004-02-18 07:35:14 51°13.919 2°52.952 6.705662 3.18581 31.346054 4.409999
2004-02-18 07:35:18 51°13.91 2°52.931 6.718396 3.186442 31.352157 4.612255
2004-02-18 07:35:24 51°13.899 2°52.895 6.705811 3.184441 31.333479 4.409999
2004-02-18 07:35:29 51°13.889 2°52.867 6.707982 3.189706 31.391615 4.578546
2004-02-18 07:35:34 51°13.879 2°52.837 6.699146 3.182651 31.313203 4.140324
2004-02-18 07:35:38 51°13.872 2°52.814 6.699146 3.182651 31.313203 4.140324
2004-02-18 07:35:44 51°13.86 2°52.779 6.700973 3.190759 31.399968 4.376289
2004-02-18 07:35:48 51°13.852 2°52.756 6.699146 3.190022 31.391158 4.174033
2004-02-18 07:35:54 51°13.841 2°52.721 6.70349 3.189706 31.387717 4.544836
2004-02-18 07:35:58 51°13.833 2°52.698 6.70122 3.187284 31.36367 4.308871
2004-02-18 07:36:04 51°13.821 2°52.662 6.703885 3.183704 31.326228 4.140324
2004-02-18 07:36:09 51°13.811 2°52.634 6.703885 3.183704 31.326228 4.140324
2004-02-18 07:36:14 51°13.801 2°52.605 6.701467 3.186758 31.362609 4.241452
2004-02-18 07:36:18 51°13.794 2°52.582 6.70196 3.189917 31.401709 4.072905
2004-02-18 07:36:24 51°13.781 2°52.547 6.705613 3.19613 31.465519 3.870648
2004-02-18 07:36:28 51°13.774 2°52.524 6.705662 3.19792 31.484251 4.376289
2004-02-18 07:36:34 51°13.762 2°52.489 6.705909 3.195077 31.45326 4.241452
2004-02-18 07:36:39 51°13.752 2°52.461 6.705909 3.195077 31.45326 4.241452
2004-02-18 07:36:44 51°13.742 2°52.431 6.703787 3.191812 31.416903 3.938067
2004-02-18 07:36:48 51°13.734 2°52.408 6.717558 3.199815 31.503348 3.971777
2004-02-18 07:36:54 51°13.723 2°52.373 6.704922 3.201395 31.520568 4.241452
2004-02-18 07:36:58 51°13.715 2°52.351 6.703441 3.202764 31.533926 4.072905
2004-02-18 07:37:04 51°13.703 2°52.315 6.700479 3.196024 31.462027 4.34258
2004-02-18 07:37:09 51°13.695 2°52.285 6.700479 3.196024 31.462027 4.34258
2004-02-18 07:37:14 51°13.683 2°52.257 6.706107 3.192971 31.425623 4.308871
2004-02-18 07:37:18 51°13.678 2°52.232 6.705119 3.157906 31.044626 4.275161
2004-02-18 07:37:24 51°13.664 2°52.198 6.70897 3.197709 31.477263 4.308871
2004-02-18 07:37:29 51°13.655 2°52.168 6.710055 3.193708 31.437559 4.376289
2004-02-18 07:37:34 51°13.645 2°52.14 6.707736 3.198657 31.491504 4.308871
2004-02-18 07:37:39 51°13.635 2°52.111 6.707736 3.198657 31.491504 4.308871
2004-02-18 07:37:44 51°13.625 2°52.082 6.706403 3.200658 31.512532 4.207742
2004-02-18 07:37:49 51°13.616 2°52.052 6.699739 3.204238 31.547648 4.241452
2004-02-18 07:37:54 51°13.606 2°52.023 6.698258 3.203396 31.538464 4.174033
2004-02-18 07:37:58 51°13.599 2°51.999 6.702651 3.19118 31.405337 4.174033
2004-02-18 07:38:04 51°13.586 2°51.966 6.70275 3.194339 31.44054 4.409999
2004-02-18 07:38:08 51°13.578 2°51.941 6.70275 3.194339 31.44054 4.409999
2004-02-18 07:38:14 51°13.566 2°51.907 6.711684 3.207081 31.581784 4.174033
2004-02-18 07:38:18 51°13.557 2°51.885 6.703392 3.206976 31.583774 4.34258
2004-02-18 07:38:24 51°13.546 2°51.849 6.704576 3.196867 31.472772 4.443708
2004-02-18 07:38:29 51°13.535 2°51.821 6.702158 3.203501 31.543529 4.443708
2004-02-18 07:38:34 51°13.525 2°51.792 6.701763 3.20645 31.574895 4.34258
2004-02-18 07:38:39 51°13.514 2°51.765 6.701763 3.20645 31.574895 4.34258
2004-02-18 07:38:44 51°13.505 2°51.735 6.702799 3.205923 31.568369 4.511127
2004-02-18 07:38:49 51°13.494 2°51.706 6.705119 3.196024 31.462027 4.409999
2004-02-18 07:38:54 51°13.485 2°51.677 6.70428 3.199289 31.499173 4.174033
2004-02-18 07:38:58 51°13.477 2°51.654 6.70507 3.209925 31.616718 4.376289
2004-02-18 07:39:04 51°13.464 2°51.62 6.70428 3.211083 31.628567 4.578546
2004-02-18 07:39:09 51°13.454 2°51.591 6.70428 3.211083 31.628567 4.578546
2004-02-18 07:39:14 51°13.444 2°51.561 6.703885 3.201816 31.525943 4.511127
2004-02-18 07:39:18 51°13.436 2°51.539 6.70349 3.210135 31.617444 4.544836
2004-02-18 07:39:24 51°13.423 2°51.504 6.7066 3.209187 31.605537 4.679674
2004-02-18 07:39:29 51°13.414 2°51.474 6.707588 3.204343 31.552714 4.679674
2004-02-18 07:39:34 51°13.403 2°51.446 6.707637 3.212873 31.646522 4.645965
2004-02-18 07:39:39 51°13.395 2°51.417 6.707637 3.212873 31.646522 4.645965
2004-02-18 07:39:44 51°13.384 2°51.388 6.706304 3.210346 31.619741 4.88193
2004-02-18 07:39:49 51°13.375 2°51.358 6.706057 3.208556 31.601001 4.612255
2004-02-18 07:39:54 51°13.365 2°51.33 6.70818 3.205818 31.568005 4.679674
2004-02-18 07:39:58 51°13.359 2°51.305 6.704725 3.214663 31.663691 5.016768
2004-02-18 07:40:04 51°13.346 2°51.271 6.706156 3.194761 31.446692 5.252734
2004-02-18 07:40:08 51°13.34 2°51.247 6.706156 3.194761 31.446692 5.252734
2004-02-18 07:40:14 51°13.327 2°51.213 6.707439 3.213294 31.650331 5.556118
2004-02-18 07:40:18 51°13.321 2°51.189 6.706551 3.209398 31.606263 5.657247
2004-02-18 07:40:24 51°13.309 2°51.155 6.707439 3.216454 31.684794 5.45499
2004-02-18 07:40:28 51°13.302 2°51.131 6.712277 3.216559 31.683581 5.657247
2004-02-18 07:40:34 51°13.289 2°51.098 6.709315 3.214663 31.663691 5.657247
2004-02-18 07:40:38 51°13.282 2°51.074 6.709315 3.214663 31.663691 5.657247
2004-02-18 07:40:44 51°13.269 2°51.04 6.713017 3.214453 31.659034 5.589828
2004-02-18 07:40:48 51°13.263 2°51.016 6.714448 3.212031 31.631046 5.522409
2004-02-18 07:40:54 51°13.25 2°50.982 6.715485 3.215295 31.66665 5.522409
2004-02-18 07:40:58 51°13.244 2°50.958 6.713807 3.211083 31.622282 5.556118
2004-02-18 07:41:04 51°13.231 2°50.925 6.709167 3.214558 31.65861 5.623537
2004-02-18 07:41:08 51°13.224 2°50.901 6.709167 3.214558 31.65861 5.623537
2004-02-18 07:41:14 51°13.211 2°50.867 6.71277 3.219086 31.70564 5.657247
2004-02-18 07:41:19 51°13.202 2°50.837 6.709414 3.21519 31.663928 5.556118
2004-02-18 07:41:24 51°13.193 2°50.808 6.712573 3.206765 31.568929 5.556118
2004-02-18 07:41:28 51°13.185 2°50.785 6.710993 3.219613 31.712959 5.556118
2004-02-18 07:41:34 51°13.173 2°50.749 6.70897 3.220455 31.722938 5.623537
2004-02-18 07:41:38 51°13.166 2°50.726 6.70897 3.220455 31.722938 5.623537
2004-02-18 07:41:44 51°13.154 2°50.691 6.710845 3.217823 31.69343 5.657247
2004-02-18 07:41:48 51°13.148 2°50.667 6.711783 3.210346 31.611888 5.387571
2004-02-18 07:41:54 51°13.135 2°50.633 6.718989 3.21677 31.684305 5.421281
2004-02-18 07:41:58 51°13.128 2°50.609 6.721506 3.221087 31.729831 5.219024
2004-02-18 07:42:04 51°13.115 2°50.574 6.716324 3.204133 31.544933 5.151606
2004-02-18 07:42:09 51°13.107 2°50.545 6.716324 3.204133 31.544933 5.151606
2004-02-18 07:42:14 51°13.096 2°50.517 6.732954 3.209819 31.606931 5.185315
2004-02-18 07:42:18 51°13.089 2°50.493 6.720667 3.220982 31.723166 5.185315
2004-02-18 07:42:24 51°13.077 2°50.458 6.721407 3.193813 31.424656 5.219024
2004-02-18 07:42:29 51°13.068 2°50.428 6.718791 3.214769 31.654617 5.050477
2004-02-18 07:42:34 51°13.057 2°50.4 6.715337 3.222456 31.732157 5.117896
2004-02-18 07:42:38 51°13.05 2°50.377 6.715337 3.222456 31.732157 5.117896
2004-02-18 07:42:44 51°13.038 2°50.341 6.721604 3.209714 31.59166 5.016768
2004-02-18 07:42:48 51°13.031 2°50.318 6.721407 3.219929 31.706955 5.050477
2004-02-18 07:42:54 51°13.018 2°50.284 6.71657 3.221403 31.72461 5.151606
2004-02-18 07:42:58 51°13.011 2°50.259 6.720074 3.222351 31.735736 5.016768
2004-02-18 07:43:04 51°12.999 2°50.225 6.719433 3.224141 31.756053 4.949349
2004-02-18 07:43:09 51°12.99 2°50.197 6.719433 3.224141 31.756053 4.949349
2004-02-18 07:43:14 51°12.979 2°50.169 6.722887 3.217928 31.686709 5.117896
2004-02-18 07:43:18 51°12.972 2°50.145 6.721358 3.224352 31.75835 4.91564
2004-02-18 07:43:24 51°12.959 2°50.111 6.722295 3.228459 31.803159 4.747093
2004-02-18 07:43:28 51°12.952 2°50.087 6.717656 3.225931 31.774006 4.88193
2004-02-18 07:43:34 51°12.94 2°50.052 6.718989 3.221824 31.729204 5.320153
2004-02-18 07:43:39 51°12.931 2°50.023 6.718989 3.221824 31.729204 5.320153
2004-02-18 07:43:44 51°12.921 2°49.995 6.717854 3.225405 31.765895 4.780802
2004-02-18 07:43:48 51°12.912 2°49.972 6.718002 3.229617 31.812639 4.949349
2004-02-18 07:43:54 51°12.902 2°49.937 6.7181 3.214347 31.648452 4.848221
2004-02-18 07:44:00 51°12.889 2°49.903 6.7181 3.218981 31.699768 4.679674
2004-02-18 07:44:04 51°12.882 2°49.879 6.717508 3.227406 31.791669 4.91564
2004-02-18 07:44:09 51°12.872 2°49.85 6.717508 3.227406 31.791669 4.91564
2004-02-18 07:44:14 51°12.862 2°49.822 6.722345 3.230565 31.826142 4.713383
2004-02-18 07:44:18 51°12.855 2°49.798 6.718989 3.225405 31.771417 4.88193
2004-02-18 07:44:24 51°12.843 2°49.764 6.720913 3.230986 31.831529 4.848221
2004-02-18 07:44:29 51°12.834 2°49.734 6.720371 3.227195 31.79095 4.713383
2004-02-18 07:44:34 51°12.825 2°49.705 6.72116 3.233408 31.857963 4.747093
2004-02-18 07:44:39 51°12.815 2°49.677 6.72116 3.233408 31.857963 4.747093
2004-02-18 07:44:44 51°12.807 2°49.647 6.719828 3.21519 31.659211 4.645965
2004-02-18 07:44:49 51°12.797 2°49.618 6.725157 3.234777 31.873696 4.679674
2004-02-18 07:44:54 51°12.788 2°49.588 6.725799 3.232987 31.853365 4.645965
2004-02-18 07:44:58 51°12.78 2°49.565 6.726884 3.229722 31.816158 4.645965
2004-02-18 07:45:04 51°12.77 2°49.529 6.729796 3.215716 31.664166 4.679674
2004-02-18 07:45:08 51°12.761 2°49.506 6.729796 3.215716 31.664166 4.679674
2004-02-18 07:45:14 51°12.75 2°49.471 6.725996 3.2134 31.637333 4.747093
2004-02-18 07:45:19 51°12.741 2°49.441 6.73172 3.22551 31.766255 4.578546
2004-02-18 07:45:24 51°12.729 2°49.414 6.730141 3.231513 31.832532 4.713383
2004-02-18 07:45:29 51°12.72 2°49.383 6.725552 3.2154 31.654433 4.679674
2004-02-18 07:45:34 51°12.709 2°49.355 6.728414 3.233513 31.850411 4.645965
2004-02-18 07:45:39 51°12.701 2°49.326 6.728414 3.233513 31.850411 4.645965
2004-02-18 07:45:44 51°12.688 2°49.299 6.734927 3.227827 31.788371 4.679674
2004-02-18 07:45:49 51°12.68 2°49.268 6.733348 3.228353 31.791747 4.645965
2004-02-18 07:45:54 51°12.669 2°49.242 6.738332 3.229406 31.805603 4.612255
2004-02-18 07:45:58 51°12.66 2°49.219 6.730783 3.235514 31.870662 4.612255
2004-02-18 07:46:04 51°12.65 2°49.182 6.745041 3.233513 31.848039 4.612255
2004-02-18 07:46:09 51°12.638 2°49.156 6.745041 3.233513 31.848039 4.612255
2004-02-18 07:46:14 51°12.629 2°49.125 6.737838 3.239306 31.909657 4.645965
2004-02-18 07:46:18 51°12.62 2°49.104 6.737888 3.235304 31.865991 4.612255
2004-02-18 07:46:24 51°12.608 2°49.07 6.743808 3.226774 31.771363 4.612255
2004-02-18 07:46:29 51°12.597 2°49.042 6.74213 3.241622 31.929393 4.645965
2004-02-18 07:46:34 51°12.587 2°49.014 6.744449 3.240464 31.915961 4.612255
2004-02-18 07:46:39 51°12.575 2°48.986 6.744449 3.240464 31.915961 4.612255
2004-02-18 07:46:44 51°12.566 2°48.956 6.746126 3.230038 31.8046 4.544836
2004-02-18 07:46:49 51°12.555 2°48.93 6.749777 3.234882 31.855069 4.578546
2004-02-18 07:46:54 51°12.544 2°48.902 6.751503 3.233829 31.842791 4.612255
2004-02-18 07:46:59 51°12.533 2°48.874 6.759888 3.234145 31.843866 4.544836
2004-02-18 07:47:04 51°12.522 2°48.846 6.761072 3.239411 31.89972 4.612255
2004-02-18 07:47:08 51°12.514 2°48.823 6.761072 3.239411 31.89972 4.612255
2004-02-18 07:47:14 51°12.501 2°48.79 6.759839 3.246993 31.980864 4.477418
2004-02-18 07:47:18 51°12.492 2°48.768 6.761417 3.242254 31.927572 4.645965
2004-02-18 07:47:24 51°12.48 2°48.733 6.764475 3.246993 31.976104 4.612255
2004-02-18 07:47:29 51°12.471 2°48.704 6.766102 3.24099 31.908244 4.612255
2004-02-18 07:47:34 51°12.46 2°48.676 6.772956 3.245413 31.95332 4.713383
2004-02-18 07:47:38 51°12.452 2°48.653 6.772956 3.245413 31.95332 4.713383
2004-02-18 07:47:44 51°12.44 2°48.619 6.77128 3.240253 31.897039 4.612255
2004-02-18 07:47:49 51°12.431 2°48.591 6.774929 3.251627 32.019517 4.544836
2004-02-18 07:47:54 51°12.42 2°48.563 6.777443 3.253101 32.034015 4.443708
2004-02-18 07:47:59 51°12.41 2°48.535 6.778282 3.243096 31.922506 4.612255
2004-02-18 07:48:04 51°12.4 2°48.508 6.78267 3.253838 32.038085 4.578546
2004-02-18 07:48:08 51°12.391 2°48.487 6.78267 3.253838 32.038085 4.578546
2004-02-18 07:48:14 51°12.379 2°48.453 6.782078 3.253206 32.02722 4.443708
2004-02-18 07:48:19 51°12.37 2°48.424 6.788339 3.251521 32.008047 4.511127
2004-02-18 07:48:24 51°12.36 2°48.396 6.790853 3.256998 32.065399 4.477418
2004-02-18 07:48:28 51°12.352 2°48.374 6.794107 3.258261 32.0768 4.34258
2004-02-18 07:48:34 51°12.341 2°48.339 6.800613 3.250889 31.994016 4.308871
2004-02-18 07:48:38 51°12.333 2°48.317 6.800613 3.250889 31.994016 4.308871
2004-02-18 07:48:44 51°12.32 2°48.284 6.801352 3.259104 32.081219 4.34258
2004-02-18 07:48:48 51°12.312 2°48.261 6.80012 3.241306 31.883218 4.275161
2004-02-18 07:48:54 51°12.299 2°48.228 6.804211 3.249099 31.964986 4.308871
2004-02-18 07:48:58 51°12.293 2°48.203 6.802634 3.251732 31.990515 4.34258
2004-02-18 07:49:04 51°12.279 2°48.17 6.809238 3.257945 32.054282 4.308871
2004-02-18 07:49:09 51°12.272 2°48.139 6.809238 3.257945 32.054282 4.308871
2004-02-18 07:49:14 51°12.261 2°48.112 6.817369 3.260578 32.079808 4.140324
2004-02-18 07:49:19 51°12.252 2°48.083 6.810371 3.259104 32.06294 4.241452
2004-02-18 07:49:24 51°12.242 2°48.055 6.812145 3.25626 32.030357 4.376289
2004-02-18 07:49:28 51°12.233 2°48.033 6.811751 3.264896 32.121317 3.870648
2004-02-18 07:49:34 51°12.221 2°47.998 6.818305 3.260999 32.076454 4.039195
2004-02-18 07:49:38 51°12.213 2°47.976 6.818305 3.260999 32.076454 4.039195
2004-02-18 07:49:44 51°12.202 2°47.941 6.818946 3.257629 32.039724 4.140324
2004-02-18 07:49:48 51°12.192 2°47.92 6.820719 3.25805 32.042728 3.971777
2004-02-18 07:49:54 51°12.181 2°47.885 6.825696 3.262895 32.094733 4.039195
2004-02-18 07:49:58 51°12.172 2°47.864 6.827075 3.252574 31.980681 3.80323
2004-02-18 07:50:04 51°12.161 2°47.829 6.82673 3.260157 32.060125 3.702101
2004-02-18 07:50:09 51°12.15 2°47.802 6.82673 3.260157 32.060125 3.702101
2004-02-18 07:50:14 51°12.14 2°47.774 6.827075 3.264791 32.10824 3.567264
2004-02-18 07:50:18 51°12.132 2°47.752 6.830376 3.266265 32.121128 3.600973
2004-02-18 07:50:24 51°12.12 2°47.717 6.829884 3.265738 32.114595 3.634683
2004-02-18 07:50:29 51°12.11 2°47.689 6.833381 3.267845 32.136754 3.567264
2004-02-18 07:50:34 51°12.1 2°47.66 6.83614 3.262895 32.082021 3.432426
2004-02-18 07:50:38 51°12.093 2°47.637 6.83614 3.262895 32.082021 3.432426
2004-02-18 07:50:44 51°12.081 2°47.603 6.83683 3.26953 32.154323 3.466136
2004-02-18 07:50:48 51°12.072 2°47.582 6.835105 3.271741 32.175242 3.466136
2004-02-18 07:50:54 51°12.06 2°47.547 6.83816 3.266791 32.121301 3.499845
2004-02-18 07:51:00 51°12.049 2°47.513 6.834761 3.264053 32.088289 3.499845
2004-02-18 07:51:04 51°12.04 2°47.491 6.833775 3.271741 32.170465 3.331298
2004-02-18 07:51:09 51°12.032 2°47.461 6.833775 3.271741 32.170465 3.331298
2004-02-18 07:51:14 51°12.021 2°47.434 6.837963 3.268792 32.139923 3.365007
2004-02-18 07:51:19 51°12.012 2°47.406 6.836682 3.264264 32.088201 3.432426
2004-02-18 07:51:24 51°12.001 2°47.378 6.839391 3.258261 32.024404 3.432426
2004-02-18 07:51:28 51°11.993 2°47.355 6.841115 3.267318 32.123063 3.263879
2004-02-18 07:51:34 51°11.981 2°47.322 6.841952 3.263211 32.07673 3.432426
2004-02-18 07:51:39 51°11.97 2°47.295 6.841952 3.263211 32.07673 3.432426
2004-02-18 07:51:44 51°11.96 2°47.266 6.840524 3.25647 32.003323 3.331298
2004-02-18 07:51:48 51°11.953 2°47.242 6.840376 3.265633 32.099938 3.23017
2004-02-18 07:51:54 51°11.94 2°47.209 6.845351 3.265106 32.094203 3.162751
2004-02-18 07:51:58 51°11.933 2°47.185 6.842396 3.262052 32.060144 3.095332
2004-02-18 07:52:04 51°11.92 2°47.152 6.845351 3.265001 32.092261 3.297589
2004-02-18 07:52:09 51°11.912 2°47.122 6.845351 3.265001 32.092261 3.297589
2004-02-18 07:52:14 51°11.9 2°47.096 6.850227 3.266054 32.102938 3.027913
2004-02-18 07:52:18 51°11.894 2°47.072 6.848996 3.262052 32.058558 3.095332
2004-02-18 07:52:24 51°11.882 2°47.038 6.846188 3.258366 32.016836 3.129042
2004-02-18 07:52:28 51°11.874 2°47.016 6.847223 3.2729 32.174331 2.893076
2004-02-18 07:52:34 51°11.862 2°46.982 6.849143 3.273953 32.185009 2.893076
2004-02-18 07:52:38 51°11.853 2°46.961 6.849143 3.273953 32.185009 2.893076
2004-02-18 07:52:44 51°11.841 2°46.928 6.849636 3.269951 32.139025 2.960494
2004-02-18 07:52:48 51°11.832 2°46.906 6.848503 3.276586 32.211306 2.724529
2004-02-18 07:52:54 51°11.821 2°46.87 6.848355 3.26974 32.137526 2.758238
2004-02-18 07:52:59 51°11.811 2°46.844 6.849488 3.258577 32.016753 2.724529
2004-02-18 07:53:04 51°11.801 2°46.815 6.848306 3.264264 32.076295 2.6234
2004-02-18 07:53:09 51°11.792 2°46.786 6.848306 3.264264 32.076295 2.6234
2004-02-18 07:53:14 51°11.781 2°46.758 6.852197 3.27132 32.153938 2.758238
2004-02-18 07:53:18 51°11.773 2°46.736 6.847863 3.278165 32.226128 2.690819
2004-02-18 07:53:24 51°11.762 2°46.701 6.852788 3.270688 32.14467 2.690819
2004-02-18 07:53:28 51°11.753 2°46.68 6.854758 3.274058 32.182972 2.555982
2004-02-18 07:53:34 51°11.742 2°46.645 6.854807 3.228773 31.68859 2.893076
2004-02-18 07:53:38 51°11.733 2°46.623 6.854807 3.228773 31.68859 2.893076
2004-02-18 07:53:44 51°11.721 2°46.588 6.853674 3.276059 32.203975 2.859366
2004-02-18 07:53:49 51°11.71 2°46.561 6.850128 3.266054 32.094997 2.6234
2004-02-18 07:53:54 51°11.7 2°46.533 6.850325 3.270899 32.142989 2.859366
2004-02-18 07:53:58 51°11.693 2°46.511 6.850818 3.27648 32.204582 2.758238
2004-02-18 07:54:04 51°11.68 2°46.477 6.852148 3.274479 32.182784 2.65711
2004-02-18 07:54:09 51°11.67 2°46.448 6.852148 3.274479 32.182784 2.65711
2004-02-18 07:54:14 51°11.66 2°46.42 6.853527 3.272373 32.162228 2.690819
2004-02-18 07:54:18 51°11.652 2°46.398 6.855792 3.278903 32.234958 2.589691
2004-02-18 07:54:24 51°11.639 2°46.365 6.852098 3.281114 32.259058 2.65711
2004-02-18 07:54:28 51°11.631 2°46.343 6.852443 3.264053 32.072415 2.859366
2004-02-18 07:54:34 51°11.619 2°46.308 6.856334 3.281746 32.262752 2.6234
2004-02-18 07:54:38 51°11.612 2°46.285 6.856334 3.281746 32.262752 2.6234
2004-02-18 07:54:44 51°11.599 2°46.252 6.856334 3.278797 32.229824 2.690819
2004-02-18 07:54:48 51°11.591 2°46.229 6.855447 3.279535 32.239451 2.690819
2004-02-18 07:54:54 51°11.578 2°46.195 6.863523 3.280798 32.253221 2.724529
2004-02-18 07:54:58 51°11.571 2°46.171 6.860125 3.273531 32.173256 2.690819
2004-02-18 07:55:04 51°11.559 2°46.137 6.857909 3.284485 32.291793 2.589691
2004-02-18 07:55:09 51°11.551 2°46.108 6.857909 3.284485 32.291793 2.589691
2004-02-18 07:55:14 51°11.541 2°46.078 6.860125 3.285538 32.301673 2.791947
2004-02-18 07:55:18 51°11.535 2°46.054 6.861603 3.273531 32.169278 2.65711
2004-02-18 07:55:24 51°11.525 2°46.018 6.857466 3.282694 32.267494 2.555982
2004-02-18 07:55:29 51°11.516 2°45.989 6.866625 3.237935 31.781919 2.724529
2004-02-18 07:55:34 51°11.509 2°45.958 6.860027 3.267423 32.101173 2.758238
2004-02-18 07:55:39 51°11.501 2°45.927 6.860027 3.267423 32.101173 2.758238
2004-02-18 07:55:44 51°11.492 2°45.898 6.863031 3.283431 32.274728 2.758238
2004-02-18 07:55:49 51°11.486 2°45.867 6.860618 3.268792 32.116079 2.791947
2004-02-18 07:55:54 51°11.478 2°45.837 6.859928 3.281114 32.24789 3.095332
2004-02-18 07:55:58 51°11.471 2°45.813 6.858747 3.278271 32.216915 2.791947
2004-02-18 07:56:04 51°11.462 2°45.776 6.860618 3.281851 32.255124 2.690819
2004-02-18 07:56:08 51°11.456 2°45.752 6.860618 3.281851 32.255124 2.690819
2004-02-18 07:56:14 51°11.447 2°45.715 6.861898 3.28143 32.250534 2.724529
2004-02-18 07:56:18 51°11.439 2°45.692 6.862932 3.281957 32.257069 2.859366
2004-02-18 07:56:24 51°11.43 2°45.654 6.864705 3.281641 32.256019 2.724529
2004-02-18 07:56:28 51°11.423 2°45.631 6.864262 3.285432 32.295732 2.825657
2004-02-18 07:56:34 51°11.415 2°45.594 6.863228 3.266265 32.087767 2.758238
2004-02-18 07:56:38 51°11.406 2°45.571 6.863228 3.266265 32.087767 2.758238
2004-02-18 07:56:44 51°11.399 2°45.533 6.861553 3.275743 32.190182 2.758238
2004-02-18 07:56:48 51°11.391 2°45.509 6.862243 3.283853 32.276125 2.758238
2004-02-18 07:56:53 51°11.385 2°45.479 6.862932 3.288908 32.331206 2.724529
2004-02-18 07:56:58 51°11.377 2°45.449 6.866034 3.282062 32.256621 2.690819
2004-02-18 07:57:04 51°11.367 2°45.413 6.862834 3.288697 32.328911 2.65711
2004-02-18 07:57:09 51°11.36 2°45.382 6.862834 3.288697 32.328911 2.65711
2004-02-18 07:57:14 51°11.352 2°45.352 6.864853 3.285959 32.297477 2.522272
2004-02-18 07:57:18 51°11.347 2°45.328 6.864262 3.286275 32.300919 2.555982
2004-02-18 07:57:24 51°11.337 2°45.293 6.867068 3.295227 32.397673 2.65711
2004-02-18 07:57:28 51°11.33 2°45.27 6.865985 3.295859 32.40376 2.6234
2004-02-18 07:57:34 51°11.321 2°45.233 6.86564 3.295964 32.407312 2.555982
2004-02-18 07:57:38 51°11.314 2°45.21 6.86564 3.295964 32.407312 2.555982
2004-02-18 07:57:44 51°11.305 2°45.174 6.866034 3.2947 32.391934 2.488563
2004-02-18 07:57:48 51°11.298 2°45.151 6.869481 3.299335 32.444051 2.454853
2004-02-18 07:57:54 51°11.29 2°45.115 6.865394 3.288487 32.324218 2.555982
2004-02-18 07:57:58 51°11.283 2°45.091 6.866133 3.299545 32.445546 2.454853
2004-02-18 07:58:04 51°11.275 2°45.053 6.869481 3.298176 32.429016 2.387435
2004-02-18 07:58:08 51°11.269 2°45.03 6.869481 3.298176 32.429016 2.387435
2004-02-18 07:58:14 51°11.26 2°44.995 6.873567 3.299335 32.442447 2.454853
2004-02-18 07:58:18 51°11.254 2°44.97 6.867167 3.302389 32.475746 2.320016
2004-02-18 07:58:24 51°11.245 2°44.935 6.870662 3.299229 32.440497 2.488563
2004-02-18 07:58:29 51°11.238 2°44.905 6.870859 3.301336 32.462658 2.353725
2004-02-18 07:58:34 51°11.232 2°44.874 6.87593 3.303758 32.487461 2.522272
2004-02-18 07:58:39 51°11.223 2°44.846 6.87593 3.303758 32.487461 2.522272
2004-02-18 07:58:44 51°11.217 2°44.815 6.876078 3.302389 32.473337 2.387435
2004-02-18 07:58:48 51°11.21 2°44.791 6.877752 3.30776 32.5311 2.353725
2004-02-18 07:58:54 51°11.203 2°44.755 6.877604 3.30913 32.545227 2.320016
2004-02-18 07:58:58 51°11.196 2°44.732 6.880558 3.311763 32.573137 2.286306
2004-02-18 07:59:04 51°11.188 2°44.696 6.881001 3.306918 32.517893 2.252597
2004-02-18 07:59:09 51°11.181 2°44.666 6.881001 3.306918 32.517893 2.252597
2004-02-18 07:59:14 51°11.174 2°44.635 6.881001 3.314501 32.59978 2.185178
2004-02-18 07:59:18 51°11.168 2°44.612 6.881542 3.315554 32.609655 2.320016
2004-02-18 07:59:24 51°11.16 2°44.576 6.881247 3.304811 32.491715 2.286306
2004-02-18 07:59:28 51°11.154 2°44.552 6.884003 3.31587 32.611489 2.252597
2004-02-18 07:59:34 51°11.146 2°44.516 6.884594 3.307234 32.515711 2.218888
2004-02-18 07:59:39 51°11.138 2°44.486 6.884594 3.307234 32.515711 2.218888
2004-02-18 07:59:44 51°11.132 2°44.455 6.886908 3.317134 32.623661 2.286306
2004-02-18 07:59:48 51°11.125 2°44.432 6.890599 3.316397 32.614008 2.252597
2004-02-18 07:59:54 51°11.118 2°44.396 6.886268 3.315238 32.60218 2.320016
2004-02-18 07:59:59 51°11.109 2°44.366 6.888532 3.319873 32.6503 2.218888
2004-02-18 08:00:04 51°11.104 2°44.335 6.886514 3.320294 32.653281 2.218888
2004-02-18 08:00:08 51°11.097 2°44.313 6.886514 3.320294 32.653281 2.218888
2004-02-18 08:00:14 51°11.09 2°44.275 6.886908 3.318293 32.631457 2.117759
2004-02-18 08:00:18 51°11.085 2°44.251 6.889122 3.322611 32.676938 2.252597
2004-02-18 08:00:24 51°11.077 2°44.215 6.889565 3.32377 32.687151 2.050341
2004-02-18 08:00:28 51°11.072 2°44.19 6.889959 3.317661 32.622147 2.08405
2004-02-18 08:00:34 51°11.064 2°44.154 6.887547 3.324823 32.701063 2.185178
2004-02-18 08:00:39 51°11.06 2°44.123 6.887547 3.324823 32.701063 2.185178
2004-02-18 08:00:44 51°11.052 2°44.092 6.892519 3.325033 32.701745 2.117759
2004-02-18 08:00:49 51°11.048 2°44.061 6.892814 3.319873 32.645459 2.117759
2004-02-18 08:00:54 51°11.04 2°44.031 6.899064 3.327245 32.725062 2.185178
2004-02-18 08:00:59 51°11.034 2°44 6.896899 3.310077 32.535454 2.353725
2004-02-18 08:01:04 51°11.029 2°43.97 6.89872 3.328615 32.738381 2.016631
2004-02-18 08:01:09 51°11.022 2°43.939 6.89872 3.328615 32.738381 2.016631
2004-02-18 08:01:14 51°11.017 2°43.909 6.898769 3.3303 32.755146 2.016631
2004-02-18 08:01:19 51°11.01 2°43.879 6.901722 3.30776 32.507793 2.016631
2004-02-18 08:01:24 51°11.006 2°43.847 6.90054 3.32219 32.663464 2.151469
2004-02-18 08:01:29 51°11 2°43.817 6.90241 3.333881 32.789353 1.982922
2004-02-18 08:01:34 51°10.994 2°43.787 6.902361 3.335566 32.807738 2.117759
2004-02-18 08:01:38 51°10.99 2°43.762 6.902361 3.335566 32.807738 2.117759
2004-02-18 08:01:44 51°10.982 2°43.726 6.904133 3.337041 32.823826 2.151469
2004-02-18 08:01:48 51°10.977 2°43.701 6.90428 3.333565 32.783476 2.185178
2004-02-18 08:01:54 51°10.97 2°43.665 6.90615 3.338621 32.837008 2.016631
2004-02-18 08:01:58 51°10.966 2°43.64 6.907134 3.337041 32.821393 1.982922
2004-02-18 08:02:04 51°10.958 2°43.604 6.907085 3.340095 32.853907 1.982922
2004-02-18 08:02:08 51°10.953 2°43.579 6.907085 3.340095 32.853907 1.982922
2004-02-18 08:02:14 51°10.946 2°43.543 6.906938 3.340938 32.863101 1.848084
2004-02-18 08:02:19 51°10.94 2°43.512 6.907823 3.345362 32.908124 1.746956
2004-02-18 08:02:24 51°10.935 2°43.481 6.907971 3.340938 32.859043 2.050341
2004-02-18 08:02:28 51°10.929 2°43.457 6.907479 3.345151 32.905012 2.016631
2004-02-18 08:02:34 51°10.923 2°43.42 6.909004 3.345888 32.912245 1.982922
2004-02-18 08:02:38 51°10.917 2°43.396 6.909004 3.345888 32.912245 1.982922
2004-02-18 08:02:44 51°10.91 2°43.359 6.91176 3.345151 32.903387 2.050341
2004-02-18 08:02:48 51°10.906 2°43.334 6.911907 3.345678 32.908321 1.915503
2004-02-18 08:02:54 51°10.899 2°43.299 6.911218 3.350417 32.962487 1.780665
2004-02-18 08:02:58 51°10.894 2°43.275 6.915646 3.352103 32.979253 1.780665
2004-02-18 08:03:04 51°10.886 2°43.238 6.917762 3.347363 32.925897 1.848084
2004-02-18 08:03:08 51°10.881 2°43.214 6.917762 3.347363 32.925897 1.848084
2004-02-18 08:03:14 51°10.873 2°43.178 6.919779 3.338726 32.83248 1.881794
2004-02-18 08:03:19 51°10.869 2°43.148 6.921894 3.349048 32.943474 1.949212
2004-02-18 08:03:24 51°10.862 2°43.118 6.926322 3.352735 32.982893 1.713247
2004-02-18 08:03:28 51°10.858 2°43.093 6.925879 3.353472 32.987682 1.679537
2004-02-18 08:03:34 51°10.851 2°43.056 6.929814 3.357896 33.032704 1.881794
2004-02-18 08:03:38 51°10.846 2°43.032 6.929814 3.357896 33.032704 1.881794
2004-02-18 08:03:44 51°10.842 2°42.994 6.931093 3.356737 33.017612 1.881794
2004-02-18 08:03:48 51°10.837 2°42.969 6.933552 3.361688 33.069196 1.780665
2004-02-18 08:03:54 51°10.832 2°42.932 6.932962 3.361372 33.064114 1.713247
2004-02-18 08:03:58 51°10.826 2°42.908 6.937979 3.357369 33.018803 1.746956
2004-02-18 08:04:04 51°10.821 2°42.87 6.938569 3.364005 33.087956 1.679537
2004-02-18 08:04:09 51°10.815 2°42.839 6.938569 3.364005 33.087956 1.679537
2004-02-18 08:04:14 51°10.81 2°42.808 6.938422 3.362214 33.067597 1.679537
2004-02-18 08:04:18 51°10.805 2°42.785 6.938815 3.363057 33.075161 1.746956
2004-02-18 08:04:24 51°10.799 2°42.748 6.936602 3.366638 33.112611 1.679537
2004-02-18 08:04:29 51°10.794 2°42.717 6.938569 3.36074 33.046612 1.679537
2004-02-18 08:04:34 51°10.789 2°42.686 6.939061 3.365796 33.100963 1.645828
2004-02-18 08:04:38 51°10.785 2°42.661 6.939061 3.365796 33.100963 1.645828
2004-02-18 08:04:44 51°10.779 2°42.625 6.939553 3.364848 33.088985 1.713247
2004-02-18 08:04:48 51°10.774 2°42.601 6.941668 3.368745 33.133968 1.679537
2004-02-18 08:04:54 51°10.768 2°42.564 6.94152 3.365901 33.099662 1.679537
2004-02-18 08:04:58 51°10.763 2°42.539 6.941323 3.371273 33.160743 1.645828
2004-02-18 08:05:04 51°10.756 2°42.501 6.939995 3.364742 33.088653 1.612118
2004-02-18 08:05:09 51°10.752 2°42.471 6.939995 3.364742 33.088653 1.612118
2004-02-18 08:05:13 51°10.747 2°42.447 6.944569 3.373274 33.180133 1.612118
2004-02-18 08:05:20 51°10.739 2°42.404 6.943438 3.37338 33.180464 1.612118
2004-02-18 08:05:24 51°10.735 2°42.379 6.944225 3.369272 33.136445 1.645828
2004-02-18 08:05:28 51°10.731 2°42.353 6.943143 3.37022 33.145974 1.780665
2004-02-18 08:05:34 51°10.724 2°42.317 6.944274 3.369904 33.140072 1.612118
2004-02-18 08:05:39 51°10.719 2°42.288 6.944274 3.369904 33.140072 1.612118
2004-02-18 08:05:44 51°10.713 2°42.257 6.945208 3.376856 33.217589 1.5447
2004-02-18 08:05:48 51°10.708 2°42.232 6.944569 3.374012 33.184906 1.612118
2004-02-18 08:05:54 51°10.702 2°42.194 6.943831 3.373696 33.183913 1.612118
2004-02-18 08:05:59 51°10.698 2°42.162 6.94688 3.376645 33.213651 1.612118
2004-02-18 08:06:04 51°10.692 2°42.132 6.945208 3.377066 33.21825 1.645828
2004-02-18 08:06:08 51°10.688 2°42.108 6.945208 3.377066 33.21825 1.645828
2004-02-18 08:06:14 51°10.681 2°42.071 6.943979 3.373696 33.17982 1.645828
2004-02-18 08:06:19 51°10.675 2°42.039 6.948405 3.376224 33.208232 1.5447
2004-02-18 08:06:24 51°10.67 2°42.008 6.946585 3.368534 33.123495 1.612118
2004-02-18 08:06:28 51°10.666 2°41.983 6.950372 3.369061 33.129241 1.578409
2004-02-18 08:06:34 51°10.659 2°41.947 6.94511 3.378225 33.228439 1.578409
2004-02-18 08:06:38 51°10.655 2°41.922 6.94511 3.378225 33.228439 1.578409
2004-02-18 08:06:44 51°10.648 2°41.886 6.951453 3.380121 33.249958 1.578409
2004-02-18 08:06:49 51°10.642 2°41.855 6.949683 3.378436 33.229919 1.477281
2004-02-18 08:06:54 51°10.637 2°41.823 6.949241 3.377909 33.22417 1.443571
2004-02-18 08:06:59 51°10.632 2°41.793 6.960205 3.38286 33.278217 1.645828
2004-02-18 08:07:04 51°10.626 2°41.762 6.958435 3.380121 33.246677 1.5447
2004-02-18 08:07:09 51°10.622 2°41.732 6.958435 3.380121 33.246677 1.5447
2004-02-18 08:07:14 51°10.616 2°41.701 6.966302 3.373274 33.171129 1.51099
2004-02-18 08:07:18 51°10.612 2°41.676 6.964827 3.388126 33.329972 1.5447
2004-02-18 08:07:24 51°10.606 2°41.64 6.968415 3.390549 33.354782 1.612118
2004-02-18 08:07:28 51°10.602 2°41.616 6.969349 3.393709 33.388468 1.443571
2004-02-18 08:07:34 51°10.596 2°41.58 6.969595 3.397396 33.426262 1.645828
2004-02-18 08:07:39 51°10.591 2°41.549 6.969595 3.397396 33.426262 1.645828
2004-02-18 08:07:44 51°10.587 2°41.519 6.970431 3.402136 33.475563 1.612118
2004-02-18 08:07:49 51°10.581 2°41.488 6.97048 3.405191 33.504803 1.477281
2004-02-18 08:07:54 51°10.576 2°41.458 6.973528 3.408983 33.546232 1.409862
2004-02-18 08:07:59 51°10.572 2°41.427 6.974363 3.408246 33.538176 1.443571
2004-02-18 08:08:04 51°10.566 2°41.397 6.974855 3.41425 33.599642 1.409862
2004-02-18 08:08:09 51°10.561 2°41.367 6.974855 3.41425 33.599642 1.409862
2004-02-18 08:08:14 51°10.555 2°41.337 6.974806 3.410037 33.552777 1.443571
2004-02-18 08:08:19 51°10.551 2°41.306 6.975887 3.413618 33.586938 1.578409
2004-02-18 08:08:24 51°10.545 2°41.276 6.977411 3.416673 33.625288 1.51099
2004-02-18 08:08:28 51°10.541 2°41.252 6.977755 3.417305 33.630537 1.51099
2004-02-18 08:08:34 51°10.535 2°41.216 6.977558 3.418148 33.637258 1.409862
2004-02-18 08:08:39 51°10.529 2°41.186 6.977558 3.418148 33.637258 1.409862
2004-02-18 08:08:44 51°10.524 2°41.155 6.979967 3.414356 33.594994 1.51099
2004-02-18 08:08:49 51°10.518 2°41.125 6.979918 3.414777 33.599598 1.477281
2004-02-18 08:08:54 51°10.513 2°41.096 6.978443 3.414461 33.594489 1.5447
2004-02-18 08:08:58 51°10.509 2°41.071 6.978394 3.418675 33.640525 1.477281
2004-02-18 08:09:04 51°10.503 2°41.034 6.982178 3.419412 33.647753 1.443571
2004-02-18 08:09:09 51°10.497 2°41.004 6.982178 3.419412 33.647753 1.443571
2004-02-18 08:09:14 51°10.492 2°40.973 6.980311 3.419728 33.649547 1.443571
2004-02-18 08:09:18 51°10.488 2°40.949 6.979967 3.421308 33.667643 1.409862
2004-02-18 08:09:24 51°10.481 2°40.913 6.981048 3.4172 33.624411 1.477281
2004-02-18 08:09:29 51°10.477 2°40.882 6.981589 3.421519 33.669115 1.342443
2004-02-18 08:09:34 51°10.472 2°40.851 6.982572 3.420676 33.658247 1.51099
2004-02-18 08:09:38 51°10.467 2°40.827 6.982572 3.420676 33.658247 1.51099
2004-02-18 08:09:44 51°10.462 2°40.79 6.979574 3.422994 33.686062 1.5447
2004-02-18 08:09:49 51°10.455 2°40.76 6.984243 3.422362 33.677494 1.409862
2004-02-18 08:09:54 51°10.449 2°40.73 6.984685 3.412986 33.575067 1.376153
2004-02-18 08:09:58 51°10.445 2°40.705 6.982719 3.425522 33.711199 1.612118
2004-02-18 08:10:04 51°10.439 2°40.669 6.983997 3.425733 33.712671 1.477281
2004-02-18 08:10:09 51°10.434 2°40.638 6.983997 3.425733 33.712671 1.477281
2004-02-18 08:10:14 51°10.428 2°40.608 6.982572 3.42194 33.67123 1.477281
2004-02-18 08:10:19 51°10.423 2°40.577 6.98208 3.420781 33.65608 1.477281
2004-02-18 08:10:24 51°10.418 2°40.546 6.982916 3.425522 33.709538 1.443571
2004-02-18 08:10:28 51°10.414 2°40.522 6.985226 3.422678 33.679287 1.578409
2004-02-18 08:10:34 51°10.407 2°40.486 6.983505 3.425838 33.713822 1.612118
2004-02-18 08:10:38 51°10.402 2°40.461 6.983505 3.425838 33.713822 1.612118
2004-02-18 08:10:44 51°10.395 2°40.425 6.987928 3.410985 33.550726 1.645828
2004-02-18 08:10:48 51°10.392 2°40.401 6.987191 3.413302 33.576036 1.342443
2004-02-18 08:10:54 51°10.384 2°40.365 6.99073 3.424047 33.692591 1.477281
2004-02-18 08:10:59 51°10.38 2°40.334 6.986503 3.423836 33.690289 1.5447
2004-02-18 08:11:04 51°10.374 2°40.303 6.986602 3.425206 33.705253 1.612118
2004-02-18 08:11:08 51°10.369 2°40.279 6.986602 3.425206 33.705253 1.612118
2004-02-18 08:11:14 51°10.363 2°40.242 6.985471 3.428787 33.741901 1.612118
2004-02-18 08:11:18 51°10.358 2°40.218 6.986602 3.430473 33.757826 1.612118
2004-02-18 08:11:24 51°10.352 2°40.182 6.988272 3.425206 33.70027 1.679537
2004-02-18 08:11:28 51°10.348 2°40.157 6.987978 3.399713 33.422722 1.645828
2004-02-18 08:11:34 51°10.342 2°40.121 6.990091 3.43121 33.766717 1.612118
2004-02-18 08:11:39 51°10.336 2°40.09 6.990091 3.43121 33.766717 1.612118
2004-02-18 08:11:44 51°10.331 2°40.059 6.989059 3.430473 33.75949 1.679537
2004-02-18 08:11:49 51°10.326 2°40.029 6.992056 3.431948 33.777274 1.713247
2004-02-18 08:11:54 51°10.321 2°39.998 6.9924 3.432474 33.780534 1.679537
2004-02-18 08:11:59 51°10.316 2°39.967 6.99358 3.433949 33.796654 1.713247
2004-02-18 08:12:04 51°10.311 2°39.936 6.995349 3.433739 33.792686 1.746956
2004-02-18 08:12:08 51°10.305 2°39.912 6.995349 3.433739 33.792686 1.746956
2004-02-18 08:12:14 51°10.299 2°39.876 6.993973 3.429735 33.748104 1.746956
2004-02-18 08:12:18 51°10.294 2°39.852 6.996037 3.434055 33.794474 1.679537
2004-02-18 08:12:24 51°10.288 2°39.815 6.996675 3.411722 33.548857 1.780665
2004-02-18 08:12:29 51°10.281 2°39.785 6.997756 3.436267 33.816988 2.117759
2004-02-18 08:12:33 51°10.277 2°39.76 6.998887 3.433212 33.781934 1.881794
2004-02-18 08:12:40 51°10.269 2°39.718 6.998887 3.433212 33.781934 1.881794
2004-02-18 08:12:44 51°10.266 2°39.693 7.001196 3.434265 33.794279 1.949212
2004-02-18 08:12:49 51°10.261 2°39.662 7.001982 3.435003 33.800673 1.915503
2004-02-18 08:12:54 51°10.256 2°39.631 7.003554 3.436161 33.811671 1.814375
2004-02-18 08:12:59 51°10.251 2°39.601 7.004193 3.434476 33.792418 1.982922
2004-02-18 08:13:04 51°10.246 2°39.57 7.00267 3.437636 33.823623 1.982922
2004-02-18 08:13:08 51°10.242 2°39.546 7.00267 3.437636 33.823623 1.982922
2004-02-18 08:13:14 51°10.236 2°39.509 7.005765 3.439322 33.842044 1.814375
2004-02-18 08:13:19 51°10.23 2°39.478 7.005569 3.439532 33.843513 1.949212
2004-02-18 08:13:24 51°10.226 2°39.448 7.008516 3.434371 33.787105 2.218888
2004-02-18 08:13:28 51°10.221 2°39.423 7.008418 3.437004 33.81505 2.08405
2004-02-18 08:13:34 51°10.215 2°39.387 7.010236 3.437636 33.821124 2.08405
2004-02-18 08:13:39 51°10.21 2°39.357 7.010236 3.437636 33.821124 2.08405
2004-02-18 08:13:44 51°10.204 2°39.327 7.01053 3.436267 33.806159 2.016631
2004-02-18 08:13:49 51°10.2 2°39.296 7.012594 3.433738 33.776871 2.151469
2004-02-18 08:13:54 51°10.193 2°39.267 7.015885 3.433844 33.77719 2.218888
2004-02-18 08:14:00 51°10.187 2°39.23 7.016425 3.4389 33.829938 2.286306
2004-02-18 08:14:04 51°10.182 2°39.206 7.01726 3.429735 33.729818 2.185178
2004-02-18 08:14:09 51°10.178 2°39.176 7.01726 3.429735 33.729818 2.185178
2004-02-18 08:14:14 51°10.172 2°39.146 7.018538 3.434265 33.776802 2.185178
2004-02-18 08:14:18 51°10.169 2°39.122 7.019815 3.440691 33.845339 2.252597
2004-02-18 08:14:24 51°10.161 2°39.086 7.021632 3.44027 33.839068 2.387435
2004-02-18 08:14:29 51°10.158 2°39.054 7.023548 3.437636 33.809464 2.353725
2004-02-18 08:14:34 51°10.152 2°39.025 7.026691 3.443535 33.872247 2.421144
2004-02-18 08:14:38 51°10.148 2°39.001 7.026691 3.443535 33.872247 2.421144
2004-02-18 08:14:44 51°10.142 2°38.965 7.028017 3.440796 33.841489 2.353725
2004-02-18 08:14:48 51°10.138 2°38.94 7.030915 3.426364 33.68222 2.454853
2004-02-18 08:14:54 51°10.131 2°38.904 7.032732 3.443219 33.863791 2.387435
2004-02-18 08:14:58 51°10.128 2°38.88 7.036513 3.440691 33.836173 2.454853
2004-02-18 08:15:04 51°10.121 2°38.844 7.038624 3.424468 33.654893 2.555982
2004-02-18 08:15:08 51°10.118 2°38.819 7.038624 3.424468 33.654893 2.555982
2004-02-18 08:15:14 51°10.11 2°38.783 7.040441 3.446696 33.894262 2.522272
2004-02-18 08:15:19 51°10.106 2°38.753 7.042356 3.44817 33.910373 2.6234
2004-02-18 08:15:24 51°10.1 2°38.723 7.045941 3.44954 33.922829 2.758238
2004-02-18 08:15:28 51°10.096 2°38.698 7.048445 3.449435 33.919174 2.758238
2004-02-18 08:15:34 51°10.09 2°38.662 7.052127 3.453227 33.958097 2.758238
2004-02-18 08:15:39 51°10.085 2°38.631 7.052127 3.453227 33.958097 2.758238
2004-02-18 08:15:44 51°10.08 2°38.601 7.052912 3.449645 33.917302 2.825657
2004-02-18 08:15:49 51°10.074 2°38.572 7.057969 3.452384 33.944714 2.859366
2004-02-18 08:15:54 51°10.07 2°38.541 7.059049 3.439005 33.796963 2.994204
2004-02-18 08:15:58 51°10.065 2°38.517 7.064497 3.455123 33.969619 2.926785
2004-02-18 08:16:04 51°10.059 2°38.481 7.063614 3.452384 33.936364 3.297589
2004-02-18 08:16:08 51°10.055 2°38.457 7.063614 3.452384 33.936364 3.297589
2004-02-18 08:16:14 51°10.049 2°38.421 7.06759 3.457862 33.994519 3.129042
2004-02-18 08:16:20 51°10.042 2°38.384 7.068866 3.454596 33.956347 3.466136
2004-02-18 08:16:24 51°10.038 2°38.36 7.070682 3.449434 33.897486 3.129042
2004-02-18 08:16:29 51°10.032 2°38.329 7.072743 3.449434 33.894985 3.466136
2004-02-18 08:16:33 51°10.029 2°38.305 7.076326 3.459653 34.006553 3.499845
2004-02-18 08:16:38 51°10.022 2°38.276 7.076326 3.459653 34.006553 3.499845
2004-02-18 08:16:44 51°10.016 2°38.238 7.077945 3.463867 34.045878 3.398717
2004-02-18 08:16:49 51°10.011 2°38.209 7.099878 3.459021 33.992963 3.533554
2004-02-18 08:16:54 51°10.005 2°38.178 7.078927 3.46334 34.037615 3.533554
2004-02-18 08:16:59 51°10 2°38.147 7.076178 3.460496 34.00405 3.668392
2004-02-18 08:17:04 51°9.996 2°38.117 7.079417 3.459337 33.988057 3.432426
2004-02-18 08:17:09 51°9.989 2°38.087 7.079417 3.459337 33.988057 3.432426
2004-02-18 08:17:13 51°9.987 2°38.061 7.076964 3.462603 34.020363 3.533554
2004-02-18 08:17:19 51°9.98 2°38.025 7.08192 3.465552 34.051728 3.432426
2004-02-18 08:17:24 51°9.976 2°37.995 7.081576 3.462392 34.019735 3.533554
2004-02-18 08:17:28 51°9.971 2°37.971 7.083196 3.455228 33.943214 3.365007
2004-02-18 08:17:34 51°9.965 2°37.934 7.081626 3.462813 34.024335 3.533554
2004-02-18 08:17:38 51°9.961 2°37.91 7.081626 3.462813 34.024335 3.533554
2004-02-18 08:17:44 51°9.954 2°37.874 7.081527 3.465131 34.048801 3.499845
2004-02-18 08:17:48 51°9.951 2°37.849 7.079466 3.463761 34.026323 3.499845
2004-02-18 08:17:54 51°9.944 2°37.813 7.084962 3.464499 34.03939 3.466136
2004-02-18 08:17:59 51°9.938 2°37.782 7.082509 3.461444 34.006878 3.567264
2004-02-18 08:18:04 51°9.933 2°37.752 7.088201 3.465236 34.050788 3.466136
2004-02-18 08:18:09 51°9.927 2°37.722 7.088201 3.465236 34.050788 3.466136
2004-02-18 08:18:14 51°9.923 2°37.692 7.086434 3.462076 34.012941 3.668392
2004-02-18 08:18:19 51°9.918 2°37.661 7.089133 3.465552 34.048381 3.499845
2004-02-18 08:18:24 51°9.914 2°37.631 7.090507 3.465342 34.045244 3.634683
2004-02-18 08:18:29 51°9.911 2°37.6 7.092568 3.464815 34.040331 3.702101
2004-02-18 08:18:34 51°9.906 2°37.57 7.091635 3.467659 34.068871 3.634683
2004-02-18 08:18:39 51°9.903 2°37.539 7.091635 3.467659 34.068871 3.634683
2004-02-18 08:18:44 51°9.898 2°37.508 7.094579 3.459653 33.978145 3.76952
2004-02-18 08:18:49 51°9.895 2°37.477 7.095806 3.467659 34.066359 3.80323
2004-02-18 08:18:54 51°9.891 2°37.447 7.100368 3.46924 34.082772 3.735811
2004-02-18 08:18:59 51°9.886 2°37.416 7.099436 3.469556 34.08371 3.600973
2004-02-18 08:19:04 51°9.883 2°37.384 7.104587 3.466184 34.045242 3.567264
2004-02-18 08:19:08 51°9.879 2°37.36 7.104587 3.466184 34.045242 3.567264
2004-02-18 08:19:14 51°9.875 2°37.323 7.103704 3.467132 34.05308 3.938067
2004-02-18 08:19:19 51°9.872 2°37.292 7.10493 3.468291 34.064889 3.904358
2004-02-18 08:19:24 51°9.868 2°37.261 7.104489 3.4724 34.107219 3.76952
2004-02-18 08:19:29 51°9.864 2°37.231 7.106107 3.466922 34.046599 4.106614
2004-02-18 08:19:34 51°9.861 2°37.2 7.107824 3.471136 34.089235 3.971777
2004-02-18 08:19:38 51°9.858 2°37.176 7.107824 3.471136 34.089235 3.971777
2004-02-18 08:19:44 51°9.854 2°37.139 7.111994 3.4724 34.103868 3.938067
2004-02-18 08:19:48 51°9.851 2°37.115 7.114544 3.47103 34.088085 4.106614
2004-02-18 08:19:54 51°9.846 2°37.078 7.115966 3.472295 34.101043 4.241452
2004-02-18 08:19:59 51°9.843 2°37.048 7.117487 3.474823 34.126961 4.275161
2004-02-18 08:20:04 51°9.839 2°37.017 7.119007 3.473559 34.110651 4.308871
2004-02-18 08:20:08 51°9.836 2°36.993 7.119007 3.473559 34.110651 4.308871
2004-02-18 08:20:14 51°9.832 2°36.957 7.121508 3.47556 34.129142 4.34258
2004-02-18 08:20:18 51°9.829 2°36.933 7.124401 3.476508 34.137812 4.376289
2004-02-18 08:20:24 51°9.824 2°36.898 7.127589 3.473453 34.102803 4.106614
2004-02-18 08:20:28 51°9.821 2°36.876 7.127736 3.475244 34.121505 4.578546
2004-02-18 08:20:32 51°9.818 2°36.857 7.13058 3.476192 34.131012 4.544836
2004-02-18 08:20:38 51°9.813 2°36.831 7.13058 3.476192 34.131012 4.544836
2004-02-18 08:20:44 51°9.807 2°36.809 7.13465 3.477035 34.138531 4.544836
2004-02-18 08:20:49 51°9.8 2°36.793 7.133718 3.477351 34.136114 4.477418
2004-02-18 08:20:54 51°9.795 2°36.778 7.135679 3.478931 34.152515 4.713383
2004-02-18 08:20:59 51°9.789 2°36.765 7.135728 3.48009 34.165158 4.679674
2004-02-18 08:21:04 51°9.784 2°36.754 7.136856 3.481144 34.17162 4.645965
2004-02-18 08:21:09 51°9.779 2°36.744 7.136856 3.481144 34.17162 4.645965
2004-02-18 08:21:14 51°9.776 2°36.734 7.137493 3.482513 34.184883 4.780802
2004-02-18 08:21:18 51°9.773 2°36.728 7.139406 3.482092 34.180286 4.645965
2004-02-18 08:21:24 51°9.769 2°36.72 7.139455 3.481144 34.169105 4.612255
2004-02-18 08:21:29 51°9.766 2°36.715 7.140092 3.483567 34.192181 4.544836
2004-02-18 08:21:34 51°9.764 2°36.71 7.141072 3.482303 34.178391 4.477418
2004-02-18 08:21:39 51°9.76 2°36.706 7.141072 3.482303 34.178391 4.477418
2004-02-18 08:21:44 51°9.757 2°36.701 7.140533 3.482513 34.18069 4.578546
2004-02-18 08:21:48 51°9.755 2°36.698 7.140533 3.483988 34.1951 4.780802
2004-02-18 08:21:54 51°9.75 2°36.692 7.142298 3.482408 34.177864 4.780802
2004-02-18 08:21:58 51°9.747 2°36.688 7.142298 3.485358 34.206683 4.645965
2004-02-18 08:22:04 51°9.743 2°36.682 7.144602 3.485252 34.208051 4.747093
2004-02-18 08:22:08 51°9.741 2°36.678 7.144602 3.485252 34.208051 4.747093
2004-02-18 08:22:14 51°9.737 2°36.674 7.145141 3.484831 34.202615 4.645965
2004-02-18 08:22:19 51°9.735 2°36.672 7.14823 3.484093 34.193733 4.612255
2004-02-18 08:22:24 51°9.734 2°36.67 7.146906 3.485463 34.207832 4.645965
2004-02-18 08:22:29 51°9.733 2°36.67 7.146514 3.485252 34.203856 4.645965
2004-02-18 08:22:34 51°9.732 2°36.67 7.148034 3.486833 34.219413 4.645965
2004-02-18 08:22:39 51°9.732 2°36.672 7.148034 3.486833 34.219413 4.645965
2004-02-18 08:22:44 51°9.731 2°36.673 7.1472 3.486095 34.210531 4.578546
2004-02-18 08:22:49 51°9.73 2°36.674 7.145387 3.485147 34.199351 4.679674
2004-02-18 08:22:54 51°9.729 2°36.674 7.145092 3.484199 34.189011 4.511127
2004-02-18 08:22:59 51°9.729 2°36.675 7.144896 3.485042 34.197364 4.713383
2004-02-18 08:23:04 51°9.728 2°36.676 7.146906 3.485884 34.204877 4.780802
2004-02-18 08:23:08 51°9.727 2°36.676 7.146906 3.485884 34.204877 4.780802
2004-02-18 08:23:14 51°9.726 2°36.677 7.14774 3.487043 34.220033 4.848221
2004-02-18 08:23:19 51°9.724 2°36.677 7.147249 3.486517 34.213449 4.747093
2004-02-18 08:23:24 51°9.723 2°36.677 7.145583 3.486517 34.215966 4.679674
2004-02-18 08:23:28 51°9.722 2°36.677 7.145926 3.485358 34.202488 4.645965
2004-02-18 08:23:34 51°9.72 2°36.676 7.146073 3.485884 34.206555 4.780802
2004-02-18 08:23:39 51°9.719 2°36.675 7.146073 3.485884 34.206555 4.780802
2004-02-18 08:23:44 51°9.718 2°36.675 7.147494 3.486517 34.215127 4.679674
2004-02-18 08:23:48 51°9.717 2°36.675 7.145583 3.486727 34.216586 4.679674
2004-02-18 08:23:54 51°9.715 2°36.673 7.143671 3.486622 34.217115 4.679674
2004-02-18 08:23:58 51°9.714 2°36.672 7.145387 3.487149 34.222021 4.578546
2004-02-18 08:24:04 51°9.713 2°36.671 7.1472 3.484515 34.193296 4.612255
2004-02-18 08:24:09 51°9.711 2°36.67 7.1472 3.484515 34.193296 4.612255
2004-02-18 08:24:13 51°9.71 2°36.669 7.144749 3.486622 34.215437 4.645965
2004-02-18 08:24:19 51°9.709 2°36.667 7.145092 3.486622 34.218794 4.544836
2004-02-18 08:24:24 51°9.708 2°36.666 7.146073 3.486833 34.220253 4.612255
2004-02-18 08:24:29 51°9.706 2°36.664 7.146563 3.485252 34.202178 4.679674
2004-02-18 08:24:34 51°9.705 2°36.663 7.148328 3.485463 34.204476 4.747093
2004-02-18 08:24:39 51°9.704 2°36.661 7.148328 3.485463 34.204476 4.747093
2004-02-18 08:24:44 51°9.703 2°36.66 7.147838 3.486517 34.215966 4.612255
2004-02-18 08:24:48 51°9.702 2°36.658 7.148181 3.486622 34.217954 4.544836
2004-02-18 08:24:53 51°9.701 2°36.656 7.149651 3.487043 34.220033 4.645965
2004-02-18 08:25:00 51°9.699 2°36.654 7.146416 3.486517 34.215966 4.679674
2004-02-18 08:25:04 51°9.698 2°36.652 7.148132 3.4862 34.210841 4.544836
2004-02-18 08:25:08 51°9.697 2°36.651 7.148132 3.4862 34.210841 4.544836
2004-02-18 08:25:14 51°9.695 2°36.649 7.150093 3.486517 34.214288 4.544836
2004-02-18 08:25:18 51°9.694 2°36.647 7.151955 3.486517 34.214288 4.645965
2004-02-18 08:25:24 51°9.693 2°36.645 7.150142 3.486833 34.215217 4.645965
2004-02-18 08:25:28 51°9.692 2°36.644 7.148818 3.486411 34.213978 4.443708
2004-02-18 08:25:34 51°9.69 2°36.641 7.153083 3.487149 34.221182 4.645965
2004-02-18 08:25:39 51°9.689 2°36.639 7.153083 3.487149 34.221182 4.645965
2004-02-18 08:25:44 51°9.688 2°36.637 7.151465 3.485252 34.199661 4.578546
2004-02-18 08:25:48 51°9.687 2°36.636 7.150142 3.487359 34.220962 4.477418
2004-02-18 08:25:54 51°9.686 2°36.633 7.15171 3.486411 34.209783 4.645965
2004-02-18 08:25:59 51°9.684 2°36.631 7.148034 3.486516 34.210093 4.511127
2004-02-18 08:26:04 51°9.684 2°36.629 7.150877 3.4862 34.207485 4.544836
2004-02-18 08:26:08 51°9.682 2°36.628 7.150877 3.4862 34.207485 4.544836
2004-02-18 08:26:14 51°9.68 2°36.625 7.151759 3.485884 34.203199 4.578546
2004-02-18 08:26:18 51°9.679 2°36.624 7.151122 3.486622 34.21208 4.612255
2004-02-18 08:26:24 51°9.678 2°36.621 7.147887 3.4862 34.206646 4.477418
2004-02-18 08:26:29 51°9.677 2°36.619 7.150436 3.485884 34.201522 4.645965
2004-02-18 08:26:34 51°9.676 2°36.617 7.150779 3.485884 34.202361 4.679674
2004-02-18 08:26:38 51°9.675 2°36.616 7.150779 3.485884 34.202361 4.679674
2004-02-18 08:26:44 51°9.674 2°36.614 7.151269 3.487043 34.215837 4.544836
2004-02-18 08:26:49 51°9.672 2°36.612 7.15171 3.486833 34.213539 4.477418
2004-02-18 08:26:53 51°9.671 2°36.611 7.150926 3.486938 34.213849 4.477418
2004-02-18 08:26:59 51°9.67 2°36.609 7.15073 3.486938 34.215527 4.578546
2004-02-18 08:27:04 51°9.669 2°36.607 7.149308 3.487254 34.218135 4.511127
2004-02-18 08:27:09 51°9.667 2°36.605 7.149308 3.487254 34.218135 4.511127
2004-02-18 08:27:14 51°9.666 2°36.604 7.152887 3.486095 34.205497 4.679674
2004-02-18 08:27:19 51°9.665 2°36.602 7.152445 3.486833 34.2127 4.645965
2004-02-18 08:27:24 51°9.664 2°36.601 7.152102 3.486411 34.208105 4.443708
2004-02-18 08:27:29 51°9.663 2°36.599 7.156269 3.486516 34.210093 4.645965
2004-02-18 08:27:34 51°9.662 2°36.598 7.155141 3.486833 34.211861 4.645965
2004-02-18 08:27:38 51°9.661 2°36.597 7.155141 3.486833 34.211861 4.645965
2004-02-18 08:27:44 51°9.66 2°36.594 7.151906 3.486938 34.211332 4.578546
2004-02-18 08:27:48 51°9.659 2°36.593 7.149308 3.487043 34.214998 4.612255
2004-02-18 08:27:54 51°9.658 2°36.592 7.149308 3.486727 34.208196 4.511127
2004-02-18 08:27:58 51°9.657 2°36.591 7.155975 3.487149 34.214469 4.477418
2004-02-18 08:28:04 51°9.656 2°36.589 7.154161 3.486938 34.21301 4.578546
2004-02-18 08:28:08 51°9.655 2°36.588 7.154161 3.486938 34.21301 4.578546
2004-02-18 08:28:14 51°9.654 2°36.586 7.154161 3.486306 34.205278 4.578546
2004-02-18 08:28:18 51°9.653 2°36.585 7.149455 3.48757 34.219903 4.949349
2004-02-18 08:28:24 51°9.652 2°36.583 7.154063 3.486516 34.206737 4.578546
2004-02-18 08:28:28 51°9.651 2°36.582 7.155435 3.487781 34.221362 4.578546
2004-02-18 08:28:34 51°9.65 2°36.581 7.154602 3.487465 34.216237 4.578546
2004-02-18 08:28:38 51°9.649 2°36.579 7.154602 3.487465 34.216237 4.578546
2004-02-18 08:28:44 51°9.648 2°36.578 7.154357 3.487043 34.215837 4.612255
2004-02-18 08:28:48 51°9.647 2°36.577 7.156955 3.486938 34.21301 4.578546
2004-02-18 08:28:54 51°9.646 2°36.575 7.153867 3.487043 34.212481 4.747093
2004-02-18 08:28:58 51°9.645 2°36.574 7.154161 3.487359 34.215927 4.679674
2004-02-18 08:29:04 51°9.644 2°36.572 7.152838 3.48757 34.218225 4.645965
2004-02-18 08:29:09 51°9.643 2°36.571 7.152838 3.48757 34.218225 4.645965
2004-02-18 08:29:13 51°9.642 2°36.57 7.153328 3.48757 34.217386 4.612255
2004-02-18 08:29:19 51°9.641 2°36.569 7.151269 3.486727 34.207357 4.747093
2004-02-18 08:29:24 51°9.64 2°36.567 7.150583 3.487675 34.216018 4.612255
2004-02-18 08:29:29 51°9.639 2°36.566 7.151612 3.486411 34.205588 4.544836
2004-02-18 08:29:34 51°9.638 2°36.565 7.15372 3.487043 34.212481 4.544836
2004-02-18 08:29:38 51°9.637 2°36.564 7.15372 3.487043 34.212481 4.544836
2004-02-18 08:29:44 51°9.636 2°36.562 7.153034 3.487465 34.217915 4.645965
2004-02-18 08:29:48 51°9.635 2°36.561 7.154651 3.487254 34.218135 4.645965
2004-02-18 08:29:53 51°9.634 2°36.56 7.152985 3.487359 34.217605 4.679674
2004-02-18 08:29:59 51°9.633 2°36.558 7.154896 3.487675 34.221052 4.612255
2004-02-18 08:30:04 51°9.632 2°36.557 7.153377 3.487359 34.215927 5.320153
2004-02-18 08:30:09 51°9.631 2°36.556 7.153377 3.487359 34.215927 5.320153
2004-02-18 08:30:14 51°9.63 2°36.555 7.151759 3.487781 34.220522 4.747093
2004-02-18 08:30:19 51°9.629 2°36.554 7.153818 3.487149 34.21363 4.645965
2004-02-18 08:30:24 51°9.628 2°36.552 7.151367 3.48757 34.218225 4.679674
2004-02-18 08:30:28 51°9.627 2°36.551 7.153034 3.487781 34.220522 4.612255
2004-02-18 08:30:34 51°9.627 2°36.55 7.156073 3.486306 34.205278 4.780802
2004-02-18 08:30:38 51°9.625 2°36.549 7.156073 3.486306 34.205278 4.780802
2004-02-18 08:30:44 51°9.624 2°36.547 7.157641 3.4862 34.204968 4.612255
2004-02-18 08:30:48 51°9.624 2°36.546 7.153671 3.487254 34.214778 4.544836
2004-02-18 08:30:54 51°9.623 2°36.545 7.15171 3.486727 34.210712 4.612255
2004-02-18 08:30:59 51°9.622 2°36.543 7.151563 3.48757 34.219064 4.645965
2004-02-18 08:31:04 51°9.621 2°36.542 7.152396 3.487465 34.214559 4.645965
2004-02-18 08:31:09 51°9.62 2°36.541 7.152396 3.487465 34.214559 4.645965
2004-02-18 08:31:14 51°9.618 2°36.54 7.150338 3.487675 34.220213 4.578546
2004-02-18 08:31:19 51°9.618 2°36.539 7.155141 3.487043 34.211642 4.645965
2004-02-18 08:31:24 51°9.617 2°36.538 7.15274 3.487886 34.22335 4.645965
2004-02-18 08:31:28 51°9.616 2°36.537 7.154014 3.488097 34.223969 4.645965
2004-02-18 08:31:34 51°9.615 2°36.536 7.153965 3.487991 34.224499 4.645965
2004-02-18 08:31:39 51°9.614 2°36.535 7.153965 3.487991 34.224499 4.645965
2004-02-18 08:31:44 51°9.613 2°36.534 7.150926 3.487149 34.214469 4.578546
2004-02-18 08:31:49 51°9.612 2°36.533 7.155778 3.487359 34.217605 4.645965
2004-02-18 08:31:54 51°9.612 2°36.532 7.152592 3.487359 34.216766 4.578546
2004-02-18 08:31:58 51°9.611 2°36.531 7.1522 3.487886 34.221671 4.544836
2004-02-18 08:32:04 51°9.609 2°36.53 7.154945 3.487781 34.222201 4.578546
2004-02-18 08:32:09 51°9.609 2°36.529 7.154945 3.487781 34.222201 4.578546
2004-02-18 08:32:13 51°9.608 2°36.528 7.153377 3.487675 34.220213 4.477418
2004-02-18 08:32:19 51°9.607 2°36.527 7.155337 3.487149 34.214469 4.679674
2004-02-18 08:32:24 51°9.606 2°36.527 7.154308 3.487781 34.221362 4.780802
2004-02-18 08:32:28 51°9.605 2°36.526 7.153524 3.487465 34.217915 4.713383
2004-02-18 08:32:34 51°9.604 2°36.525 7.153524 3.488097 34.223969 4.713383
2004-02-18 08:32:39 51°9.604 2°36.524 7.153524 3.488097 34.223969 4.713383
2004-02-18 08:32:44 51°9.603 2°36.523 7.153867 3.487149 34.21363 4.645965
2004-02-18 08:32:48 51°9.602 2°36.522 7.153524 3.48757 34.217386 4.578546
2004-02-18 08:32:54 51°9.601 2°36.521 7.153377 3.487886 34.22251 4.612255
2004-02-18 08:32:58 51°9.6 2°36.52 7.156563 3.487043 34.212481 4.578546
2004-02-18 08:33:04 51°9.599 2°36.519 7.153426 3.4862 34.20413 4.645965
2004-02-18 08:33:09 51°9.598 2°36.519 7.153426 3.4862 34.20413 4.645965
2004-02-18 08:33:14 51°9.598 2°36.518 7.152396 3.48757 34.219064 4.679674
2004-02-18 08:33:18 51°9.597 2°36.518 7.155876 3.487254 34.21394 4.612255
2004-02-18 08:33:24 51°9.596 2°36.517 7.155337 3.487886 34.221671 4.544836
2004-02-18 08:33:29 51°9.595 2°36.516 7.153524 3.487781 34.219683 4.679674
2004-02-18 08:33:33 51°9.594 2°36.516 7.154651 3.487149 34.211952 4.544836
2004-02-18 08:33:39 51°9.593 2°36.515 7.154651 3.487149 34.211952 4.544836
2004-02-18 08:33:44 51°9.592 2°36.514 7.15519 3.488307 34.224588 4.578546
2004-02-18 08:33:48 51°9.591 2°36.514 7.153181 3.486622 34.206208 4.578546
2004-02-18 08:33:54 51°9.59 2°36.513 7.155288 3.487675 34.219374 4.645965
2004-02-18 08:33:59 51°9.589 2°36.512 7.154259 3.487886 34.22251 4.443708
2004-02-18 08:34:04 51°9.588 2°36.511 7.154308 3.487675 34.218535 4.612255
2004-02-18 08:34:08 51°9.587 2°36.511 7.154308 3.487675 34.218535 4.612255
2004-02-18 08:34:14 51°9.586 2°36.51 7.155926 3.487359 34.217605 4.612255
2004-02-18 08:34:18 51°9.585 2°36.51 7.153818 3.487781 34.220522 4.578546
2004-02-18 08:34:24 51°9.584 2°36.509 7.151955 3.48757 34.219064 4.578546
2004-02-18 08:34:29 51°9.583 2°36.509 7.15171 3.487991 34.22282 4.544836
2004-02-18 08:34:34 51°9.582 2°36.508 7.151612 3.486938 34.208816 4.645965
2004-02-18 08:34:39 51°9.582 2°36.507 7.151612 3.486938 34.208816 4.645965
2004-02-18 08:34:44 51°9.58 2°36.507 7.152249 3.488097 34.220613 4.409999
2004-02-18 08:34:49 51°9.579 2°36.506 7.152543 3.487781 34.218005 4.544836
2004-02-18 08:34:54 51°9.578 2°36.505 7.151857 3.488624 34.229713 4.713383
2004-02-18 08:34:59 51°9.577 2°36.505 7.153181 3.487359 34.216766 4.443708
2004-02-18 08:35:04 51°9.577 2°36.504 7.154504 3.487359 34.219284 4.949349
2004-02-18 08:35:08 51°9.576 2°36.504 7.154504 3.487359 34.219284 4.949349
2004-02-18 08:35:14 51°9.575 2°36.503 7.155337 3.48757 34.219064 4.409999
2004-02-18 08:35:20 51°9.574 2°36.503 7.153181 3.487781 34.222201 4.544836
2004-02-18 08:35:24 51°9.574 2°36.502 7.152102 3.487886 34.22335 4.443708
2004-02-18 08:35:29 51°9.573 2°36.502 7.152102 3.48757 34.218225 4.612255
2004-02-18 08:35:34 51°9.572 2°36.501 7.151416 3.487675 34.219374 4.477418
2004-02-18 08:35:38 51°9.572 2°36.501 7.151416 3.487675 34.219374 4.477418
2004-02-18 08:35:44 51°9.571 2°36.5 7.150877 3.487886 34.22251 4.477418
2004-02-18 08:35:49 51°9.57 2°36.5 7.151122 3.488097 34.223969 4.544836
2004-02-18 08:35:54 51°9.569 2°36.499 7.153034 3.487043 34.212481 4.511127
2004-02-18 08:35:59 51°9.568 2°36.498 7.152543 3.487886 34.22335 4.477418
2004-02-18 08:36:04 51°9.566 2°36.498 7.154994 3.488097 34.225647 4.443708